Time,TemperatureF,DewpointF,PressureIn,WindDirection,WindDirectionDegrees,WindSpeedMPH,WindSpeedGustMPH,Humidity,HourlyPrecipIn,Conditions,Clouds,dailyrainin,SolarRadiationWatts/m^2,SoftwareType,DateUTC
2013-01-20 00:02:00,18.1,10.3,30.26,NNW,327,10.0,16.0,71,0.00,,,0.00,0,Wunderground v.1.15,2013-01-20 06:02:00,
2013-01-20 00:03:00,18.1,10.3,30.26,NNW,333,14.0,16.0,71,0.00,,,0.00,0,Wunderground v.1.15,2013-01-20 06:03:00,
2013-01-20 00:04:00,18.1,10.3,30.26,NW,316,14.0,16.0,71,0.00,,,0.00,0,Wunderground v.1.15,2013-01-20 06:04:00,
2013-01-20 00:05:00,18.0,9.9,30.26,NW,322,11.0,16.0,70,0.00,,,0.00,0,Wunderground v.1.15,2013-01-20 06:05:00,
2013-01-20 00:08:00,18.0,10.2,30.26,NW,313,12.0,16.0,71,0.00,,,0.00,0,Wunderground v.1.15,2013-01-20 06:08:00,
2013-01-20 00:11:00,17.8,10.0,30.26,NW,304,10.0,12.0,71,0.00,,,0.00,0,Wunderground v.1.15,2013-01-20 06:11:00,
2013-01-20 00:14:00,17.7,9.9,30.26,NW,313,11.0,13.0,71,0.00,,,0.00,0,Wunderground v.1.15,2013-01-20 06:14:00,
2013-01-20 00:16:00,17.6,10.1,30.26,NW,309,14.0,14.0,72,0.00,,,0.00,0,Wunderground v.1.15,2013-01-20 06:16:00,
2013-01-20 00:19:00,17.5,9.7,30.26,NW,312,11.0,15.0,71,0.00,,,0.00,0,Wunderground v.1.15,2013-01-20 06:19:00,
2013-01-20 00:20:00,17.5,9.7,30.26,WNW,301,15.0,15.0,71,0.00,,,0.00,0,Wunderground v.1.15,2013-01-20 06:20:00,
2013-01-20 00:22:00,17.5,10.0,30.26,NNW,338,8.0,15.0,72,0.00,,,0.00,0,Wunderground v.1.15,2013-01-20 06:22:00,
2013-01-20 00:25:00,17.3,9.5,30.27,NW,324,7.0,15.0,71,0.00,,,0.00,0,Wunderground v.1.15,2013-01-20 06:25:00,
2013-01-20 00:27:00,17.3,9.5,30.27,NW,320,13.0,15.0,71,0.00,,,0.00,0,Wunderground v.1.15,2013-01-20 06:27:00,
2013-01-20 00:28:00,17.2,9.4,30.27,NNW,331,12.0,15.0,71,0.00,,,0.00,0,Wunderground v.1.15,2013-01-20 06:28:00,
2013-01-20 00:29:00,17.2,9.4,30.27,NW,319,11.0,15.0,71,0.00,,,0.00,0,Wunderground v.1.15,2013-01-20 06:29:00,
2013-01-20 00:33:00,17.1,9.0,30.28,NW,315,15.0,15.0,70,0.00,,,0.00,0,Wunderground v.1.15,2013-01-20 06:33:00,
2013-01-20 00:35:00,17.1,9.3,30.28,NW,320,15.0,15.0,71,0.00,,,0.00,0,Wunderground v.1.15,2013-01-20 06:35:00,
2013-01-20 00:38:00,17.0,8.9,30.28,NW,320,16.0,16.0,70,0.00,,,0.00,0,Wunderground v.1.15,2013-01-20 06:38:00,
2013-01-20 00:39:00,17.0,8.9,30.28,NW,311,13.0,16.0,70,0.00,,,0.00,0,Wunderground v.1.15,2013-01-20 06:39:00,
2013-01-20 00:40:00,17.0,8.6,30.28,NNW,327,10.0,14.0,69,0.00,,,0.00,0,Wunderground v.1.15,2013-01-20 06:40:00,
2013-01-20 00:43:00,17.0,8.9,30.29,NW,316,10.0,14.0,70,0.00,,,0.00,0,Wunderground v.1.15,2013-01-20 06:43:00,
2013-01-20 00:44:00,17.0,8.9,30.29,NW,318,10.0,14.0,70,0.00,,,0.00,0,Wunderground v.1.15,2013-01-20 06:44:00,
2013-01-20 00:46:00,16.9,9.1,30.29,NNW,331,6.0,14.0,71,0.00,,,0.00,0,Wunderground v.1.15,2013-01-20 06:46:00,
2013-01-20 00:49:00,16.9,8.8,30.29,NW,321,15.0,15.0,70,0.00,,,0.00,0,Wunderground v.1.15,2013-01-20 06:49:00,
2013-01-20 00:50:00,16.9,8.8,30.29,NW,323,11.0,11.0,70,0.00,,,0.00,0,Wunderground v.1.15,2013-01-20 06:50:00,
2013-01-20 00:52:00,16.9,9.1,30.29,North,350,4.0,11.0,71,0.00,,,0.00,0,Wunderground v.1.15,2013-01-20 06:52:00,
2013-01-20 00:53:00,16.9,9.1,30.29,NNW,334,8.0,11.0,71,0.00,,,0.00,0,Wunderground v.1.15,2013-01-20 06:53:00,
2013-01-20 00:57:00,16.8,9.0,30.29,NW,318,11.0,11.0,71,0.00,,,0.00,0,Wunderground v.1.15,2013-01-20 06:57:00,
2013-01-20 00:58:00,16.8,9.0,30.29,NW,318,12.0,12.0,71,0.00,,,0.00,0,Wunderground v.1.15,2013-01-20 06:58:00,
2013-01-20 00:59:00,16.8,9.3,30.29,NNW,338,6.0,12.0,72,0.00,,,0.00,0,Wunderground v.1.15,2013-01-20 06:59:00,
2013-01-20 01:02:00,16.8,9.3,30.28,NW,323,5.0,9.0,72,0.00,,,0.00,0,Wunderground v.1.15,2013-01-20 07:02:00,
2013-01-20 01:06:00,16.7,9.2,30.29,NW,319,7.0,9.0,72,0.00,,,0.00,0,Wunderground v.1.15,2013-01-20 07:06:00,
2013-01-20 01:07:00,16.7,9.2,30.29,NW,319,8.0,9.0,72,0.00,,,0.00,0,Wunderground v.1.15,2013-01-20 07:07:00,
2013-01-20 01:08:00,16.7,9.2,30.29,NW,313,8.0,9.0,72,0.00,,,0.00,0,Wunderground v.1.15,2013-01-20 07:08:00,
2013-01-20 01:09:00,16.7,9.2,30.30,NW,319,8.0,9.0,72,0.00,,,0.00,0,Wunderground v.1.15,2013-01-20 07:09:00,
2013-01-20 01:13:00,16.6,9.1,30.30,NW,309,13.0,13.0,72,0.00,,,0.00,0,Wunderground v.1.15,2013-01-20 07:13:00,
2013-01-20 01:14:00,16.6,9.1,30.30,NW,319,14.0,14.0,72,0.00,,,0.00,0,Wunderground v.1.15,2013-01-20 07:14:00,
2013-01-20 01:19:00,16.6,9.4,30.30,NNW,329,13.0,14.0,73,0.00,,,0.00,0,Wunderground v.1.15,2013-01-20 07:19:00,
2013-01-20 01:20:00,16.5,9.4,30.30,NW,318,13.0,13.0,73,0.00,,,0.00,0,Wunderground v.1.15,2013-01-20 07:20:00,
2013-01-20 01:21:00,16.5,9.4,30.30,NW,319,11.0,13.0,73,0.00,,,0.00,0,Wunderground v.1.15,2013-01-20 07:21:00,
2013-01-20 01:25:00,16.4,9.3,30.30,NW,310,11.0,13.0,73,0.00,,,0.00,0,Wunderground v.1.15,2013-01-20 07:25:00,
2013-01-20 01:27:00,16.4,9.3,30.30,NW,309,13.0,13.0,73,0.00,,,0.00,0,Wunderground v.1.15,2013-01-20 07:27:00,
2013-01-20 01:30:00,16.3,8.9,30.30,NW,309,11.0,12.0,72,0.00,,,0.00,0,Wunderground v.1.15,2013-01-20 07:30:00,
2013-01-20 01:33:00,16.2,8.1,30.31,NW,320,9.0,16.0,70,0.00,,,0.00,0,Wunderground v.1.15,2013-01-20 07:33:00,
2013-01-20 01:34:00,16.1,8.3,30.31,NW,320,11.0,16.0,71,0.00,,,0.00,0,Wunderground v.1.15,2013-01-20 07:34:00,
2013-01-20 01:35:00,16.1,8.3,30.31,NNW,348,7.0,16.0,71,0.00,,,0.00,0,Wunderground v.1.15,2013-01-20 07:35:00,
2013-01-20 01:38:00,16.1,8.3,30.30,NNW,336,10.0,16.0,71,0.00,,,0.00,0,Wunderground v.1.15,2013-01-20 07:38:00,
2013-01-20 01:39:00,16.1,8.3,30.30,NW,308,11.0,16.0,71,0.00,,,0.00,0,Wunderground v.1.15,2013-01-20 07:39:00,
2013-01-20 01:41:00,16.1,8.3,30.30,NNW,334,5.0,11.0,71,0.00,,,0.00,0,Wunderground v.1.15,2013-01-20 07:41:00,
2013-01-20 01:44:00,16.0,8.3,30.30,NNW,329,3.0,11.0,71,0.00,,,0.00,0,Wunderground v.1.15,2013-01-20 07:44:00,
2013-01-20 01:46:00,15.9,8.5,30.30,NW,318,8.0,11.0,72,0.00,,,0.00,0,Wunderground v.1.15,2013-01-20 07:46:00,
2013-01-20 01:47:00,15.9,8.5,30.30,NNW,329,4.0,11.0,72,0.00,,,0.00,0,Wunderground v.1.15,2013-01-20 07:47:00,
2013-01-20 01:49:00,15.9,8.5,30.30,NW,319,7.0,11.0,72,0.00,,,0.00,0,Wunderground v.1.15,2013-01-20 07:49:00,
2013-01-20 01:52:00,15.8,8.4,30.31,NW,319,6.0,9.0,72,0.00,,,0.00,0,Wunderground v.1.15,2013-01-20 07:52:00,
2013-01-20 01:53:00,15.8,8.7,30.31,NW,321,7.0,9.0,73,0.00,,,0.00,0,Wunderground v.1.15,2013-01-20 07:53:00,
2013-01-20 01:55:00,15.9,8.8,30.31,NW,307,8.0,9.0,73,0.00,,,0.00,0,Wunderground v.1.15,2013-01-20 07:55:00,
2013-01-20 01:56:00,15.8,9.0,30.31,WNW,301,8.0,9.0,74,0.00,,,0.00,0,Wunderground v.1.15,2013-01-20 07:56:00,
2013-01-20 01:59:00,15.9,9.1,30.31,NW,311,9.0,9.0,74,0.00,,,0.00,0,Wunderground v.1.15,2013-01-20 07:59:00,
2013-01-20 02:00:00,15.8,9.0,30.31,NW,315,9.0,10.0,74,0.00,,,0.00,0,Wunderground v.1.15,2013-01-20 08:00:00,
2013-01-20 02:01:00,15.8,8.7,30.31,NW,313,9.0,10.0,73,0.00,,,0.00,0,Wunderground v.1.15,2013-01-20 08:01:00,
2013-01-20 02:02:00,15.8,8.7,30.32,NW,323,11.0,11.0,73,0.00,,,0.00,0,Wunderground v.1.15,2013-01-20 08:02:00,
2013-01-20 02:05:00,15.7,8.3,30.32,NW,311,9.0,15.0,72,0.00,,,0.00,0,Wunderground v.1.15,2013-01-20 08:05:00,
2013-01-20 02:07:00,15.7,8.3,30.32,NNW,328,8.0,15.0,72,0.00,,,0.00,0,Wunderground v.1.15,2013-01-20 08:07:00,
2013-01-20 02:08:00,15.7,8.3,30.32,NNW,328,10.0,15.0,72,0.00,,,0.00,0,Wunderground v.1.15,2013-01-20 08:08:00,
2013-01-20 02:11:00,15.6,8.2,30.32,NW,315,10.0,10.0,72,0.00,,,0.00,0,Wunderground v.1.15,2013-01-20 08:11:00,
2013-01-20 02:13:00,15.6,8.2,30.32,WNW,292,9.0,11.0,72,0.00,,,0.00,0,Wunderground v.1.15,2013-01-20 08:13:00,
2013-01-20 02:14:00,15.5,8.1,30.32,WNW,302,10.0,11.0,72,0.00,,,0.00,0,Wunderground v.1.15,2013-01-20 08:14:00,
2013-01-20 02:17:00,15.5,8.1,30.32,NW,306,11.0,14.0,72,0.00,,,0.00,0,Wunderground v.1.15,2013-01-20 08:17:00,
2013-01-20 02:18:00,15.5,8.1,30.32,NW,314,10.0,14.0,72,0.00,,,0.00,0,Wunderground v.1.15,2013-01-20 08:18:00,
2013-01-20 02:20:00,15.5,8.1,30.32,NW,313,9.0,11.0,72,0.00,,,0.00,0,Wunderground v.1.15,2013-01-20 08:20:00,
2013-01-20 02:25:00,15.4,8.0,30.32,NW,308,9.0,13.0,72,0.00,,,0.00,0,Wunderground v.1.15,2013-01-20 08:25:00,
2013-01-20 02:30:00,15.4,8.0,30.33,NW,314,11.0,13.0,72,0.00,,,0.00,0,Wunderground v.1.15,2013-01-20 08:30:00,
2013-01-20 02:31:00,15.4,8.0,30.33,NW,312,10.0,13.0,72,0.00,,,0.00,0,Wunderground v.1.15,2013-01-20 08:31:00,
2013-01-20 02:33:00,15.3,7.9,30.32,NW,311,10.0,13.0,72,0.00,,,0.00,0,Wunderground v.1.15,2013-01-20 08:33:00,
2013-01-20 02:36:00,15.3,8.2,30.33,NW,309,11.0,13.0,73,0.00,,,0.00,0,Wunderground v.1.15,2013-01-20 08:36:00,
2013-01-20 02:37:00,15.3,8.2,30.33,NW,309,8.0,13.0,73,0.00,,,0.00,0,Wunderground v.1.15,2013-01-20 08:37:00,
2013-01-20 02:38:00,15.3,8.2,30.33,NW,307,11.0,13.0,73,0.00,,,0.00,0,Wunderground v.1.15,2013-01-20 08:38:00,
2013-01-20 02:41:00,15.2,7.8,30.33,WNW,301,11.0,14.0,72,0.00,,,0.00,0,Wunderground v.1.15,2013-01-20 08:41:00,
2013-01-20 02:42:00,15.2,7.5,30.33,NW,304,13.0,14.0,71,0.00,,,0.00,0,Wunderground v.1.15,2013-01-20 08:42:00,
2013-01-20 02:45:00,15.1,7.4,30.33,NW,309,11.0,14.0,71,0.00,,,0.00,0,Wunderground v.1.15,2013-01-20 08:45:00,
2013-01-20 02:46:00,15.1,7.4,30.32,WNW,300,12.0,14.0,71,0.00,,,0.00,0,Wunderground v.1.15,2013-01-20 08:46:00,
2013-01-20 02:47:00,15.1,7.4,30.32,NW,305,15.0,15.0,71,0.00,,,0.00,0,Wunderground v.1.15,2013-01-20 08:47:00,
2013-01-20 02:48:00,15.0,7.3,30.32,NW,309,11.0,15.0,71,0.00,,,0.00,0,Wunderground v.1.15,2013-01-20 08:48:00,
2013-01-20 02:52:00,15.0,7.6,30.33,WNW,298,13.0,13.0,72,0.00,,,0.00,0,Wunderground v.1.15,2013-01-20 08:52:00,
2013-01-20 02:53:00,15.0,7.3,30.32,NW,309,10.0,13.0,71,0.00,,,0.00,0,Wunderground v.1.15,2013-01-20 08:53:00,
2013-01-20 02:54:00,15.0,7.3,30.32,NW,312,12.0,13.0,71,0.00,,,0.00,0,Wunderground v.1.15,2013-01-20 08:54:00,
2013-01-20 02:55:00,15.0,7.3,30.32,NW,309,14.0,14.0,71,0.00,,,0.00,0,Wunderground v.1.15,2013-01-20 08:55:00,
2013-01-20 02:57:00,14.9,7.2,30.32,NW,324,9.0,14.0,71,0.00,,,0.00,0,Wunderground v.1.15,2013-01-20 08:57:00,
2013-01-20 02:59:00,14.9,7.2,30.32,NW,313,9.0,14.0,71,0.00,,,0.00,0,Wunderground v.1.15,2013-01-20 08:59:00,
2013-01-20 03:00:00,14.9,7.2,30.32,NW,307,10.0,14.0,71,0.00,,,0.00,0,Wunderground v.1.15,2013-01-20 09:00:00,
2013-01-20 03:03:00,14.9,7.2,30.32,NW,314,7.0,12.0,71,0.00,,,0.00,0,Wunderground v.1.15,2013-01-20 09:03:00,
2013-01-20 03:05:00,14.9,7.2,30.32,NW,313,10.0,12.0,71,0.00,,,0.00,0,Wunderground v.1.15,2013-01-20 09:05:00,
2013-01-20 03:06:00,14.8,7.1,30.32,NW,319,9.0,12.0,71,0.00,,,0.00,0,Wunderground v.1.15,2013-01-20 09:06:00,
2013-01-20 03:08:00,14.9,7.2,30.32,NW,318,12.0,12.0,71,0.00,,,0.00,0,Wunderground v.1.15,2013-01-20 09:08:00,
2013-01-20 03:11:00,14.8,7.1,30.33,NW,309,9.0,12.0,71,0.00,,,0.00,0,Wunderground v.1.15,2013-01-20 09:11:00,
2013-01-20 03:15:00,14.8,7.7,30.32,NW,313,8.0,12.0,73,0.00,,,0.00,0,Wunderground v.1.15,2013-01-20 09:15:00,
2013-01-20 03:17:00,14.8,7.7,30.32,NW,307,8.0,12.0,73,0.00,,,0.00,0,Wunderground v.1.15,2013-01-20 09:17:00,
2013-01-20 03:19:00,14.8,8.0,30.32,NW,304,9.0,12.0,74,0.00,,,0.00,0,Wunderground v.1.15,2013-01-20 09:19:00,
2013-01-20 03:20:00,14.8,8.0,30.33,NW,306,6.0,9.0,74,0.00,,,0.00,0,Wunderground v.1.15,2013-01-20 09:20:00,
2013-01-20 03:21:00,14.7,7.9,30.33,NW,309,6.0,9.0,74,0.00,,,0.00,0,Wunderground v.1.15,2013-01-20 09:21:00,
2013-01-20 03:24:00,14.6,7.8,30.33,NW,312,14.0,14.0,74,0.00,,,0.00,0,Wunderground v.1.15,2013-01-20 09:24:00,
2013-01-20 03:25:00,14.6,7.2,30.33,NW,308,9.0,14.0,72,0.00,,,0.00,0,Wunderground v.1.15,2013-01-20 09:25:00,
2013-01-20 03:26:00,14.6,7.2,30.33,WNW,302,8.0,14.0,72,0.00,,,0.00,0,Wunderground v.1.15,2013-01-20 09:26:00,
2013-01-20 03:27:00,14.6,7.2,30.33,NW,309,9.0,14.0,72,0.00,,,0.00,0,Wunderground v.1.15,2013-01-20 09:27:00,
2013-01-20 03:29:00,14.5,7.1,30.33,NW,308,10.0,14.0,72,0.00,,,0.00,0,Wunderground v.1.15,2013-01-20 09:29:00,
2013-01-20 03:30:00,14.4,7.0,30.32,NW,306,14.0,14.0,72,0.00,,,0.00,0,Wunderground v.1.15,2013-01-20 09:30:00,
2013-01-20 03:32:00,14.4,6.7,30.32,WNW,301,13.0,14.0,71,0.00,,,0.00,0,Wunderground v.1.15,2013-01-20 09:32:00,
2013-01-20 03:35:00,14.3,6.6,30.32,NW,311,9.0,14.0,71,0.00,,,0.00,0,Wunderground v.1.15,2013-01-20 09:35:00,
2013-01-20 03:37:00,14.2,6.5,30.32,NW,322,9.0,14.0,71,0.00,,,0.00,0,Wunderground v.1.15,2013-01-20 09:37:00,
2013-01-20 03:40:00,14.2,6.5,30.32,NW,321,5.0,14.0,71,0.00,,,0.00,0,Wunderground v.1.15,2013-01-20 09:40:00,
2013-01-20 03:42:00,14.2,6.8,30.32,NW,317,7.0,10.0,72,0.00,,,0.00,0,Wunderground v.1.15,2013-01-20 09:42:00,
2013-01-20 03:43:00,14.2,7.1,30.32,NW,315,10.0,10.0,73,0.00,,,0.00,0,Wunderground v.1.15,2013-01-20 09:43:00,
2013-01-20 03:45:00,14.1,6.7,30.32,NW,319,9.0,11.0,72,0.00,,,0.00,0,Wunderground v.1.15,2013-01-20 09:45:00,
2013-01-20 03:47:00,14.1,6.7,30.32,NW,313,7.0,11.0,72,0.00,,,0.00,0,Wunderground v.1.15,2013-01-20 09:47:00,
2013-01-20 03:48:00,14.1,6.7,30.32,NW,312,8.0,11.0,72,0.00,,,0.00,0,Wunderground v.1.15,2013-01-20 09:48:00,
2013-01-20 03:50:00,14.1,7.0,30.32,NW,313,5.0,7.0,73,0.00,,,0.00,0,Wunderground v.1.15,2013-01-20 09:50:00,
2013-01-20 03:53:00,14.1,7.0,30.32,NW,310,8.0,10.0,73,0.00,,,0.00,0,Wunderground v.1.15,2013-01-20 09:53:00,
2013-01-20 03:54:00,14.1,7.0,30.32,NW,313,7.0,10.0,73,0.00,,,0.00,0,Wunderground v.1.15,2013-01-20 09:54:00,
2013-01-20 03:55:00,14.1,7.0,30.32,NW,321,9.0,10.0,73,0.00,,,0.00,0,Wunderground v.1.15,2013-01-20 09:55:00,
2013-01-20 03:56:00,14.1,7.0,30.32,NW,313,10.0,10.0,73,0.00,,,0.00,0,Wunderground v.1.15,2013-01-20 09:56:00,
2013-01-20 04:00:00,14.1,6.7,30.32,NW,313,9.0,9.0,72,0.00,,,0.00,0,Wunderground v.1.15,2013-01-20 10:00:00,
2013-01-20 04:01:00,14.1,6.7,30.32,NW,321,9.0,9.0,72,0.00,,,0.00,0,Wunderground v.1.15,2013-01-20 10:01:00,
2013-01-20 04:02:00,14.1,6.7,30.32,NW,317,9.0,9.0,72,0.00,,,0.00,0,Wunderground v.1.15,2013-01-20 10:02:00,
2013-01-20 04:06:00,14.1,6.7,30.32,NNW,332,5.0,11.0,72,0.00,,,0.00,0,Wunderground v.1.15,2013-01-20 10:06:00,
2013-01-20 04:07:00,14.1,6.7,30.32,NW,320,5.0,11.0,72,0.00,,,0.00,0,Wunderground v.1.15,2013-01-20 10:07:00,
2013-01-20 04:08:00,14.1,6.7,30.32,NW,324,7.0,11.0,72,0.00,,,0.00,0,Wunderground v.1.15,2013-01-20 10:08:00,
2013-01-20 04:11:00,14.1,6.7,30.31,NNW,328,7.0,7.0,72,0.00,,,0.00,0,Wunderground v.1.15,2013-01-20 10:11:00,
2013-01-20 04:13:00,14.1,6.7,30.31,NNW,346,5.0,7.0,72,0.00,,,0.00,0,Wunderground v.1.15,2013-01-20 10:13:00,
2013-01-20 04:14:00,14.1,6.7,30.32,NNW,344,3.0,7.0,72,0.00,,,0.00,0,Wunderground v.1.15,2013-01-20 10:14:00,
2013-01-20 04:18:00,14.0,6.3,30.32,NNW,329,2.0,7.0,71,0.00,,,0.00,0,Wunderground v.1.15,2013-01-20 10:18:00,
2013-01-20 04:19:00,13.9,6.2,30.32,North,9,0.0,7.0,71,0.00,,,0.00,0,Wunderground v.1.15,2013-01-20 10:19:00,
2013-01-20 04:20:00,13.9,6.2,30.32,North,5,2.0,3.0,71,0.00,,,0.00,0,Wunderground v.1.15,2013-01-20 10:20:00,
2013-01-20 04:24:00,13.8,6.4,30.31,NNW,327,2.0,6.0,72,0.00,,,0.00,0,Wunderground v.1.15,2013-01-20 10:24:00,
2013-01-20 04:25:00,13.8,6.4,30.32,NW,326,3.0,6.0,72,0.00,,,0.00,0,Wunderground v.1.15,2013-01-20 10:25:00,
2013-01-20 04:27:00,13.7,6.3,30.32,NW,324,3.0,6.0,72,0.00,,,0.00,0,Wunderground v.1.15,2013-01-20 10:27:00,
2013-01-20 04:30:00,13.7,6.3,30.32,NW,324,3.0,3.0,72,0.00,,,0.00,0,Wunderground v.1.15,2013-01-20 10:30:00,
2013-01-20 04:32:00,13.7,6.6,30.32,NNW,327,2.0,3.0,73,0.00,,,0.00,0,Wunderground v.1.15,2013-01-20 10:32:00,
2013-01-20 04:35:00,13.6,6.5,30.32,NNW,330,5.0,6.0,73,0.00,,,0.00,0,Wunderground v.1.15,2013-01-20 10:35:00,
2013-01-20 04:36:00,13.6,6.5,30.32,NNW,347,1.0,6.0,73,0.00,,,0.00,0,Wunderground v.1.15,2013-01-20 10:36:00,
2013-01-20 04:38:00,13.6,6.5,30.32,NW,313,5.0,6.0,73,0.00,,,0.00,0,Wunderground v.1.15,2013-01-20 10:38:00,
2013-01-20 04:40:00,13.6,6.8,30.32,NW,321,3.0,6.0,74,0.00,,,0.00,0,Wunderground v.1.15,2013-01-20 10:40:00,
2013-01-20 04:41:00,13.6,6.8,30.32,NW,325,4.0,6.0,74,0.00,,,0.00,0,Wunderground v.1.15,2013-01-20 10:41:00,
2013-01-20 04:42:00,13.6,7.1,30.32,NW,326,5.0,6.0,75,0.00,,,0.00,0,Wunderground v.1.15,2013-01-20 10:42:00,
2013-01-20 04:44:00,13.6,6.8,30.32,NNW,329,8.0,9.0,74,0.00,,,0.00,0,Wunderground v.1.15,2013-01-20 10:44:00,
2013-01-20 04:46:00,13.6,6.8,30.32,NNW,341,1.0,9.0,74,0.00,,,0.00,0,Wunderground v.1.15,2013-01-20 10:46:00,
2013-01-20 04:48:00,13.6,6.8,30.32,NNW,330,3.0,9.0,74,0.00,,,0.00,0,Wunderground v.1.15,2013-01-20 10:48:00,
2013-01-20 04:51:00,13.5,6.8,30.31,NW,321,6.0,8.0,74,0.00,,,0.00,0,Wunderground v.1.15,2013-01-20 10:51:00,
2013-01-20 04:52:00,13.5,6.8,30.31,NNW,327,4.0,8.0,74,0.00,,,0.00,0,Wunderground v.1.15,2013-01-20 10:52:00,
2013-01-20 04:54:00,13.5,6.8,30.31,NNW,328,3.0,8.0,74,0.00,,,0.00,0,Wunderground v.1.15,2013-01-20 10:54:00,
2013-01-20 04:56:00,13.4,6.7,30.31,NNE,20,0.0,9.0,74,0.00,,,0.00,0,Wunderground v.1.15,2013-01-20 10:56:00,
2013-01-20 04:57:00,13.4,6.7,30.31,NNW,346,5.0,9.0,74,0.00,,,0.00,0,Wunderground v.1.15,2013-01-20 10:57:00,
2013-01-20 04:58:00,13.4,6.7,30.30,North,350,3.0,9.0,74,0.00,,,0.00,0,Wunderground v.1.15,2013-01-20 10:58:00,
2013-01-20 04:59:00,13.3,6.6,30.30,North,9,1.0,9.0,74,0.00,,,0.00,0,Wunderground v.1.15,2013-01-20 10:59:00,
2013-01-20 05:03:00,13.2,6.5,30.30,NNW,330,2.0,4.0,74,0.00,,,0.00,0,Wunderground v.1.15,2013-01-20 11:03:00,
2013-01-20 05:04:00,13.2,6.5,30.30,NNW,331,2.0,4.0,74,0.00,,,0.00,0,Wunderground v.1.15,2013-01-20 11:04:00,
2013-01-20 05:05:00,13.2,6.5,30.30,NNW,330,3.0,4.0,74,0.00,,,0.00,0,Wunderground v.1.15,2013-01-20 11:05:00,
2013-01-20 05:08:00,13.1,6.1,30.31,NW,313,9.0,9.0,73,0.00,,,0.00,0,Wunderground v.1.15,2013-01-20 11:08:00,
2013-01-20 05:09:00,13.1,6.1,30.31,North,360,11.0,11.0,73,0.00,,,0.00,0,Wunderground v.1.15,2013-01-20 11:09:00,
2013-01-20 05:10:00,13.1,6.1,30.31,NW,323,8.0,8.0,73,0.00,,,0.00,0,Wunderground v.1.15,2013-01-20 11:10:00,
2013-01-20 05:14:00,13.1,5.8,30.32,NW,323,4.0,10.0,72,0.00,,,0.00,0,Wunderground v.1.15,2013-01-20 11:14:00,
2013-01-20 05:15:00,13.1,5.8,30.32,NW,318,12.0,12.0,72,0.00,,,0.00,0,Wunderground v.1.15,2013-01-20 11:15:00,
2013-01-20 05:16:00,13.0,5.7,30.32,NNW,333,4.0,12.0,72,0.00,,,0.00,0,Wunderground v.1.15,2013-01-20 11:16:00,
2013-01-20 05:19:00,13.0,5.7,30.32,North,351,4.0,12.0,72,0.00,,,0.00,0,Wunderground v.1.15,2013-01-20 11:19:00,
2013-01-20 05:20:00,12.9,5.6,30.32,NNW,331,2.0,5.0,72,0.00,,,0.00,0,Wunderground v.1.15,2013-01-20 11:20:00,
2013-01-20 05:21:00,12.9,5.6,30.32,NW,320,4.0,5.0,72,0.00,,,0.00,0,Wunderground v.1.15,2013-01-20 11:21:00,
2013-01-20 05:24:00,12.7,5.1,30.32,NNW,329,5.0,6.0,71,0.00,,,0.00,0,Wunderground v.1.15,2013-01-20 11:24:00,
2013-01-20 05:26:00,12.7,5.1,30.32,NW,317,4.0,8.0,71,0.00,,,0.00,0,Wunderground v.1.15,2013-01-20 11:26:00,
2013-01-20 05:27:00,12.7,5.1,30.32,NNW,336,3.0,8.0,71,0.00,,,0.00,0,Wunderground v.1.15,2013-01-20 11:27:00,
2013-01-20 05:29:00,12.6,5.0,30.32,NW,321,6.0,8.0,71,0.00,,,0.00,0,Wunderground v.1.15,2013-01-20 11:29:00,
2013-01-20 05:31:00,12.6,5.0,30.32,NW,323,9.0,9.0,71,0.00,,,0.00,0,Wunderground v.1.15,2013-01-20 11:31:00,
2013-01-20 05:34:00,12.5,4.6,30.32,NNW,345,5.0,9.0,70,0.00,,,0.00,0,Wunderground v.1.15,2013-01-20 11:34:00,
2013-01-20 05:36:00,12.5,4.3,30.31,North,360,1.0,9.0,69,0.00,,,0.00,0,Wunderground v.1.15,2013-01-20 11:36:00,
2013-01-20 05:39:00,12.5,4.3,30.31,WNW,303,5.0,9.0,69,0.00,,,0.00,0,Wunderground v.1.15,2013-01-20 11:39:00,
2013-01-20 05:41:00,12.5,4.3,30.32,North,5,2.0,3.0,69,0.00,,,0.00,0,Wunderground v.1.15,2013-01-20 11:41:00,
2013-01-20 05:42:00,12.5,4.3,30.32,NNW,347,0.0,3.0,69,0.00,,,0.00,0,Wunderground v.1.15,2013-01-20 11:42:00,
2013-01-20 05:44:00,12.5,4.3,30.32,NW,326,2.0,3.0,69,0.00,,,0.00,0,Wunderground v.1.15,2013-01-20 11:44:00,
2013-01-20 05:47:00,12.5,4.3,30.32,NNE,26,7.0,7.0,69,0.00,,,0.00,0,Wunderground v.1.15,2013-01-20 11:47:00,
2013-01-20 05:49:00,12.4,3.8,30.32,NW,323,4.0,7.0,68,0.00,,,0.00,0,Wunderground v.1.15,2013-01-20 11:49:00,
2013-01-20 05:50:00,12.4,3.8,30.32,NNW,340,1.0,7.0,68,0.00,,,0.00,0,Wunderground v.1.15,2013-01-20 11:50:00,
2013-01-20 05:53:00,12.4,4.2,30.32,NNE,24,3.0,6.0,69,0.00,,,0.00,0,Wunderground v.1.15,2013-01-20 11:53:00,
2013-01-20 05:54:00,12.3,4.1,30.32,NW,326,2.0,6.0,69,0.00,,,0.00,0,Wunderground v.1.15,2013-01-20 11:54:00,
2013-01-20 05:57:00,12.3,4.1,30.32,NNE,27,4.0,6.0,69,0.00,,,0.00,0,Wunderground v.1.15,2013-01-20 11:57:00,
2013-01-20 05:58:00,12.3,4.1,30.32,NE,34,5.0,6.0,69,0.00,,,0.00,0,Wunderground v.1.15,2013-01-20 11:58:00,
2013-01-20 05:59:00,12.3,4.1,30.31,North,349,3.0,6.0,69,0.00,,,0.00,0,Wunderground v.1.15,2013-01-20 11:59:00,
2013-01-20 06:04:00,12.1,3.6,30.31,NNW,347,5.0,9.0,68,0.00,,,0.00,0,Wunderground v.1.15,2013-01-20 12:04:00,
2013-01-20 06:05:00,12.1,3.6,30.31,NNW,334,4.0,9.0,68,0.00,,,0.00,0,Wunderground v.1.15,2013-01-20 12:05:00,
2013-01-20 06:06:00,12.1,3.6,30.32,NNW,337,2.0,9.0,68,0.00,,,0.00,0,Wunderground v.1.15,2013-01-20 12:06:00,
2013-01-20 06:07:00,12.1,3.6,30.32,NW,325,3.0,9.0,68,0.00,,,0.00,0,Wunderground v.1.15,2013-01-20 12:07:00,
2013-01-20 06:10:00,12.1,3.9,30.32,NNW,327,6.0,6.0,69,0.00,,,0.00,0,Wunderground v.1.15,2013-01-20 12:10:00,
2013-01-20 06:11:00,12.1,3.9,30.32,NW,324,5.0,6.0,69,0.00,,,0.00,0,Wunderground v.1.15,2013-01-20 12:11:00,
2013-01-20 06:13:00,12.1,4.2,30.32,NNE,13,5.0,6.0,70,0.00,,,0.00,0,Wunderground v.1.15,2013-01-20 12:13:00,
2013-01-20 06:15:00,12.1,3.9,30.32,NNW,346,4.0,10.0,69,0.00,,,0.00,0,Wunderground v.1.15,2013-01-20 12:15:00,
2013-01-20 06:18:00,12.0,3.8,30.32,North,5,6.0,10.0,69,0.00,,,0.00,0,Wunderground v.1.15,2013-01-20 12:18:00,
2013-01-20 06:20:00,11.9,3.7,30.32,North,360,4.0,4.0,69,0.00,,,0.00,0,Wunderground v.1.15,2013-01-20 12:20:00,
2013-01-20 06:23:00,11.9,3.7,30.32,NNE,15,6.0,6.0,69,0.00,,,0.00,0,Wunderground v.1.15,2013-01-20 12:23:00,
2013-01-20 06:25:00,11.9,3.7,30.32,NNE,19,6.0,6.0,69,0.00,,,0.00,0,Wunderground v.1.15,2013-01-20 12:25:00,
2013-01-20 06:26:00,11.9,3.7,30.32,NW,311,2.0,8.0,69,0.00,,,0.00,0,Wunderground v.1.15,2013-01-20 12:26:00,
2013-01-20 06:28:00,11.9,4.0,30.32,NNE,32,0.0,8.0,70,0.00,,,0.00,0,Wunderground v.1.15,2013-01-20 12:28:00,
2013-01-20 06:30:00,11.9,4.0,30.32,NNE,32,3.0,3.0,70,0.00,,,0.00,0,Wunderground v.1.15,2013-01-20 12:30:00,
2013-01-20 06:33:00,11.9,4.0,30.32,North,350,1.0,5.0,70,0.00,,,0.00,0,Wunderground v.1.15,2013-01-20 12:33:00,
2013-01-20 06:34:00,11.9,4.0,30.32,NNE,16,3.0,5.0,70,0.00,,,0.00,0,Wunderground v.1.15,2013-01-20 12:34:00,
2013-01-20 06:35:00,11.9,4.0,30.32,NNW,340,3.0,5.0,70,0.00,,,0.00,0,Wunderground v.1.15,2013-01-20 12:35:00,
2013-01-20 06:36:00,11.9,4.0,30.32,NNW,333,1.0,5.0,70,0.00,,,0.00,0,Wunderground v.1.15,2013-01-20 12:36:00,
2013-01-20 06:39:00,11.9,4.0,30.32,NNW,328,2.0,5.0,70,0.00,,,0.00,0,Wunderground v.1.15,2013-01-20 12:39:00,
2013-01-20 06:40:00,12.0,4.4,30.32,North,5,2.0,3.0,71,0.00,,,0.00,0,Wunderground v.1.15,2013-01-20 12:40:00,
2013-01-20 06:42:00,12.0,4.4,30.33,NW,317,6.0,6.0,71,0.00,,,0.00,0,Wunderground v.1.15,2013-01-20 12:42:00,
2013-01-20 06:44:00,12.0,4.7,30.33,NW,323,3.0,6.0,72,0.00,,,0.00,0,Wunderground v.1.15,2013-01-20 12:44:00,
2013-01-20 06:45:00,12.1,4.8,30.33,NW,321,1.0,6.0,72,0.00,,,0.00,0,Wunderground v.1.15,2013-01-20 12:45:00,
2013-01-20 06:47:00,12.1,4.8,30.33,North,355,2.0,6.0,72,0.00,,,0.00,0,Wunderground v.1.15,2013-01-20 12:47:00,
2013-01-20 06:50:00,12.2,4.9,30.33,NW,320,6.0,6.0,72,0.00,,,0.00,0,Wunderground v.1.15,2013-01-20 12:50:00,
2013-01-20 06:51:00,12.2,4.9,30.33,NNW,327,3.0,6.0,72,0.00,,,0.00,0,Wunderground v.1.15,2013-01-20 12:51:00,
2013-01-20 06:52:00,12.2,4.9,30.33,NW,321,6.0,7.0,72,0.00,,,0.00,0,Wunderground v.1.15,2013-01-20 12:52:00,
2013-01-20 06:53:00,12.2,4.9,30.33,NW,326,3.0,7.0,72,0.00,,,0.00,0,Wunderground v.1.15,2013-01-20 12:53:00,
2013-01-20 06:56:00,12.3,5.0,30.33,NNW,328,0.0,7.0,72,0.00,,,0.00,0,Wunderground v.1.15,2013-01-20 12:56:00,
2013-01-20 06:58:00,12.4,5.4,30.33,NNW,330,2.0,7.0,73,0.00,,,0.00,0,Wunderground v.1.15,2013-01-20 12:58:00,
2013-01-20 06:59:00,12.4,5.4,30.33,NW,325,3.0,7.0,73,0.00,,,0.00,0,Wunderground v.1.15,2013-01-20 12:59:00,
2013-01-20 07:03:00,12.5,5.5,30.33,NNW,327,2.0,3.0,73,0.00,,,0.00,0,Wunderground v.1.15,2013-01-20 13:03:00,
2013-01-20 07:06:00,12.5,4.9,30.33,NNW,344,4.0,7.0,71,0.00,,,0.00,0,Wunderground v.1.15,2013-01-20 13:06:00,
2013-01-20 07:08:00,12.5,4.9,30.33,North,360,2.0,7.0,71,0.00,,,0.00,0,Wunderground v.1.15,2013-01-20 13:08:00,
2013-01-20 07:12:00,12.3,4.4,30.33,NW,317,3.0,5.0,70,0.00,,,0.00,0,Wunderground v.1.15,2013-01-20 13:12:00,
2013-01-20 07:13:00,12.3,4.4,30.33,NW,317,1.0,5.0,70,0.00,,,0.00,0,Wunderground v.1.15,2013-01-20 13:13:00,
2013-01-20 07:14:00,12.3,4.7,30.33,North,355,3.0,5.0,71,0.00,,,0.00,0,Wunderground v.1.15,2013-01-20 13:14:00,
2013-01-20 07:18:00,12.3,4.7,30.33,North,355,0.0,5.0,71,0.00,,,0.00,0,Wunderground v.1.15,2013-01-20 13:18:00,
2013-01-20 07:19:00,12.3,4.7,30.33,NW,317,2.0,5.0,71,0.00,,,0.00,0,Wunderground v.1.15,2013-01-20 13:19:00,
2013-01-20 07:20:00,12.3,5.0,30.33,NW,318,1.0,2.0,72,0.00,,,0.00,0,Wunderground v.1.15,2013-01-20 13:20:00,
2013-01-20 07:24:00,12.4,5.1,30.34,NW,322,1.0,5.0,72,0.00,,,0.00,0,Wunderground v.1.15,2013-01-20 13:24:00,
2013-01-20 07:25:00,12.5,5.2,30.34,NW,320,5.0,5.0,72,0.00,,,0.00,0,Wunderground v.1.15,2013-01-20 13:25:00,
2013-01-20 07:27:00,12.5,5.5,30.34,NW,320,4.0,6.0,73,0.00,,,0.00,0,Wunderground v.1.15,2013-01-20 13:27:00,
2013-01-20 07:28:00,12.6,5.6,30.34,NW,311,4.0,6.0,73,0.00,,,0.00,0,Wunderground v.1.15,2013-01-20 13:28:00,
2013-01-20 07:30:00,12.6,5.6,30.34,NW,317,4.0,4.0,73,0.00,,,0.00,0,Wunderground v.1.15,2013-01-20 13:30:00,
2013-01-20 07:33:00,12.7,5.7,30.34,NNW,342,0.0,4.0,73,0.00,,,0.00,0,Wunderground v.1.15,2013-01-20 13:33:00,
2013-01-20 07:35:00,12.7,5.4,30.34,North,350,0.0,4.0,72,0.00,,,0.00,0,Wunderground v.1.15,2013-01-20 13:35:00,
2013-01-20 07:37:00,12.7,5.4,30.34,NW,317,8.0,8.0,72,0.00,,,0.00,0,Wunderground v.1.15,2013-01-20 13:37:00,
2013-01-20 07:38:00,12.7,5.4,30.34,NW,319,0.0,8.0,72,0.00,,,0.00,0,Wunderground v.1.15,2013-01-20 13:38:00,
2013-01-20 07:40:00,12.7,5.7,30.34,NNW,342,2.0,2.0,73,0.00,,,0.00,0,Wunderground v.1.15,2013-01-20 13:40:00,
2013-01-20 07:42:00,12.8,5.8,30.34,NW,324,0.0,3.0,73,0.00,,,0.00,0,Wunderground v.1.15,2013-01-20 13:42:00,
2013-01-20 07:44:00,12.8,5.8,30.34,NW,324,6.0,7.0,73,0.00,,,0.00,5,Wunderground v.1.15,2013-01-20 13:44:00,
2013-01-20 07:46:00,12.8,5.8,30.34,NNE,14,1.0,7.0,73,0.00,,,0.00,5,Wunderground v.1.15,2013-01-20 13:46:00,
2013-01-20 07:47:00,12.8,5.8,30.34,North,360,0.0,7.0,73,0.00,,,0.00,7,Wunderground v.1.15,2013-01-20 13:47:00,
2013-01-20 07:50:00,12.8,5.8,30.35,NW,320,4.0,7.0,73,0.00,,,0.00,11,Wunderground v.1.15,2013-01-20 13:50:00,
2013-01-20 07:53:00,13.0,6.3,30.35,NNW,327,1.0,4.0,74,0.00,,,0.00,12,Wunderground v.1.15,2013-01-20 13:53:00,
2013-01-20 07:55:00,13.1,6.4,30.35,NNW,327,1.0,4.0,74,0.00,,,0.00,14,Wunderground v.1.15,2013-01-20 13:55:00,
2013-01-20 07:58:00,13.1,6.4,30.35,NW,321,4.0,4.0,74,0.00,,,0.00,16,Wunderground v.1.15,2013-01-20 13:58:00,
2013-01-20 08:00:00,13.2,6.5,30.35,NW,323,0.0,1.0,74,0.00,,,0.00,18,Wunderground v.1.15,2013-01-20 14:00:00,
2013-01-20 08:01:00,13.2,6.5,30.36,NW,320,5.0,5.0,74,0.00,,,0.00,19,Wunderground v.1.15,2013-01-20 14:01:00,
2013-01-20 08:04:00,13.3,6.6,30.35,NW,320,0.0,5.0,74,0.00,,,0.00,19,Wunderground v.1.15,2013-01-20 14:04:00,
2013-01-20 08:05:00,13.3,6.6,30.35,NW,313,5.0,5.0,74,0.00,,,0.00,21,Wunderground v.1.15,2013-01-20 14:05:00,
2013-01-20 08:10:00,13.4,6.7,30.35,NW,312,5.0,7.0,74,0.00,,,0.00,25,Wunderground v.1.15,2013-01-20 14:10:00,
2013-01-20 08:11:00,13.4,6.7,30.35,NW,311,7.0,9.0,74,0.00,,,0.00,26,Wunderground v.1.15,2013-01-20 14:11:00,
2013-01-20 08:12:00,13.4,6.7,30.35,NW,313,7.0,9.0,74,0.00,,,0.00,26,Wunderground v.1.15,2013-01-20 14:12:00,
2013-01-20 08:16:00,13.4,6.4,30.35,NNW,329,8.0,9.0,73,0.00,,,0.00,28,Wunderground v.1.15,2013-01-20 14:16:00,
2013-01-20 08:17:00,13.4,6.4,30.35,NNW,332,3.0,9.0,73,0.00,,,0.00,30,Wunderground v.1.15,2013-01-20 14:17:00,
2013-01-20 08:21:00,13.5,6.5,30.35,NNW,340,0.0,5.0,73,0.00,,,0.00,33,Wunderground v.1.15,2013-01-20 14:21:00,
2013-01-20 08:22:00,13.5,6.5,30.35,NNW,331,1.0,5.0,73,0.00,,,0.00,35,Wunderground v.1.15,2013-01-20 14:22:00,
2013-01-20 08:23:00,13.5,6.5,30.35,NNW,327,0.0,5.0,73,0.00,,,0.00,35,Wunderground v.1.15,2013-01-20 14:23:00,
2013-01-20 08:27:00,13.5,6.5,30.36,NW,319,6.0,7.0,73,0.00,,,0.00,40,Wunderground v.1.15,2013-01-20 14:27:00,
2013-01-20 08:28:00,13.5,6.5,30.36,NW,321,3.0,7.0,73,0.00,,,0.00,42,Wunderground v.1.15,2013-01-20 14:28:00,
2013-01-20 08:29:00,13.5,6.5,30.36,NNW,346,2.0,7.0,73,0.00,,,0.00,42,Wunderground v.1.15,2013-01-20 14:29:00,
2013-01-20 08:32:00,13.5,6.1,30.36,NNW,328,2.0,4.0,72,0.00,,,0.00,46,Wunderground v.1.15,2013-01-20 14:32:00,
2013-01-20 08:33:00,13.5,6.1,30.36,NNW,327,2.0,4.0,72,0.00,,,0.00,44,Wunderground v.1.15,2013-01-20 14:33:00,
2013-01-20 08:34:00,13.5,6.5,30.36,NW,326,2.0,4.0,73,0.00,,,0.00,44,Wunderground v.1.15,2013-01-20 14:34:00,
2013-01-20 08:38:00,13.6,6.5,30.36,North,5,1.0,4.0,73,0.00,,,0.00,47,Wunderground v.1.15,2013-01-20 14:38:00,
2013-01-20 08:39:00,13.6,6.5,30.36,North,360,1.0,4.0,73,0.00,,,0.00,49,Wunderground v.1.15,2013-01-20 14:39:00,
2013-01-20 08:42:00,13.7,6.6,30.36,NNW,342,3.0,4.0,73,0.00,,,0.00,53,Wunderground v.1.15,2013-01-20 14:42:00,
2013-01-20 08:44:00,13.6,6.2,30.36,NW,326,2.0,7.0,72,0.00,,,0.00,54,Wunderground v.1.15,2013-01-20 14:44:00,
2013-01-20 08:46:00,13.7,6.0,30.36,NE,37,5.0,8.0,71,0.00,,,0.00,56,Wunderground v.1.15,2013-01-20 14:46:00,
2013-01-20 08:47:00,13.6,5.9,30.36,NW,316,3.0,8.0,71,0.00,,,0.00,56,Wunderground v.1.15,2013-01-20 14:47:00,
2013-01-20 08:51:00,13.7,6.3,30.36,NNW,333,3.0,3.0,72,0.00,,,0.00,53,Wunderground v.1.15,2013-01-20 14:51:00,
2013-01-20 08:52:00,13.7,6.0,30.37,NNE,14,1.0,3.0,71,0.00,,,0.00,53,Wunderground v.1.15,2013-01-20 14:52:00,
2013-01-20 08:53:00,13.7,6.0,30.36,NNW,342,7.0,7.0,71,0.00,,,0.00,53,Wunderground v.1.15,2013-01-20 14:53:00,
2013-01-20 08:56:00,13.8,6.4,30.37,NNW,327,9.0,9.0,72,0.00,,,0.00,56,Wunderground v.1.15,2013-01-20 14:56:00,
2013-01-20 08:57:00,13.8,6.4,30.37,NW,317,6.0,9.0,72,0.00,,,0.00,56,Wunderground v.1.15,2013-01-20 14:57:00,
2013-01-20 08:59:00,13.9,6.5,30.37,NW,325,6.0,9.0,72,0.00,,,0.00,60,Wunderground v.1.15,2013-01-20 14:59:00,
2013-01-20 09:02:00,13.9,6.5,30.37,NW,321,3.0,8.0,72,0.00,,,0.00,63,Wunderground v.1.15,2013-01-20 15:02:00,
2013-01-20 09:03:00,13.9,6.5,30.37,NNW,336,2.0,8.0,72,0.00,,,0.00,63,Wunderground v.1.15,2013-01-20 15:03:00,
2013-01-20 09:05:00,13.9,6.5,30.38,NNW,342,1.0,8.0,72,0.00,,,0.00,65,Wunderground v.1.15,2013-01-20 15:05:00,
2013-01-20 09:08:00,13.9,6.5,30.38,NW,310,8.0,9.0,72,0.00,,,0.00,67,Wunderground v.1.15,2013-01-20 15:08:00,
2013-01-20 09:09:00,13.9,6.5,30.37,NW,323,10.0,10.0,72,0.00,,,0.00,70,Wunderground v.1.15,2013-01-20 15:09:00,
2013-01-20 09:10:00,13.9,6.5,30.37,NNW,341,5.0,8.0,72,0.00,,,0.00,72,Wunderground v.1.15,2013-01-20 15:10:00,
2013-01-20 09:13:00,14.0,6.9,30.38,NNW,333,1.0,8.0,73,0.00,,,0.00,69,Wunderground v.1.15,2013-01-20 15:13:00,
2013-01-20 09:14:00,14.0,6.9,30.38,NNW,327,1.0,8.0,73,0.00,,,0.00,69,Wunderground v.1.15,2013-01-20 15:14:00,
2013-01-20 09:16:00,14.1,7.0,30.38,NNW,327,1.0,8.0,73,0.00,,,0.00,72,Wunderground v.1.15,2013-01-20 15:16:00,
2013-01-20 09:18:00,14.1,7.0,30.38,North,360,2.0,8.0,73,0.00,,,0.00,74,Wunderground v.1.15,2013-01-20 15:18:00,
2013-01-20 09:19:00,14.0,6.6,30.38,North,5,1.0,8.0,72,0.00,,,0.00,74,Wunderground v.1.15,2013-01-20 15:19:00,
2013-01-20 09:23:00,14.1,7.0,30.38,WNW,301,10.0,10.0,73,0.00,,,0.00,81,Wunderground v.1.15,2013-01-20 15:23:00,
2013-01-20 09:24:00,14.1,7.3,30.38,NNW,329,7.0,11.0,74,0.00,,,0.00,81,Wunderground v.1.15,2013-01-20 15:24:00,
2013-01-20 09:26:00,14.1,7.6,30.38,NW,313,6.0,11.0,75,0.00,,,0.00,84,Wunderground v.1.15,2013-01-20 15:26:00,
2013-01-20 09:29:00,14.0,7.5,30.39,NW,324,8.0,11.0,75,0.00,,,0.00,88,Wunderground v.1.15,2013-01-20 15:29:00,
2013-01-20 09:31:00,14.0,7.8,30.39,NNW,338,2.0,9.0,76,0.00,,,0.00,86,Wunderground v.1.15,2013-01-20 15:31:00,
2013-01-20 09:34:00,13.9,7.7,30.39,North,355,1.0,9.0,76,0.00,,,0.00,84,Wunderground v.1.15,2013-01-20 15:34:00,
2013-01-20 09:36:00,13.8,7.6,30.39,NW,310,4.0,9.0,76,0.00,,,0.00,83,Wunderground v.1.15,2013-01-20 15:36:00,
2013-01-20 09:38:00,13.7,7.5,30.39,NW,320,3.0,9.0,76,0.00,,,0.00,81,Wunderground v.1.15,2013-01-20 15:38:00,
2013-01-20 09:39:00,13.6,7.4,30.39,NNE,22,0.0,9.0,76,0.00,,,0.00,81,Wunderground v.1.15,2013-01-20 15:39:00,
2013-01-20 09:42:00,13.6,7.7,30.39,NW,325,2.0,5.0,77,0.00,,,0.00,79,Wunderground v.1.15,2013-01-20 15:42:00,
2013-01-20 09:44:00,13.5,7.6,30.39,North,5,5.0,5.0,77,0.00,,,0.00,77,Wunderground v.1.15,2013-01-20 15:44:00,
2013-01-20 09:46:00,13.3,7.1,30.39,NNE,15,5.0,6.0,76,0.00,,,0.00,79,Wunderground v.1.15,2013-01-20 15:46:00,
2013-01-20 09:47:00,13.3,7.1,30.39,NNE,19,2.0,6.0,76,0.00,,,0.00,79,Wunderground v.1.15,2013-01-20 15:47:00,
2013-01-20 09:50:00,13.1,7.2,30.39,NNE,17,1.0,3.0,77,0.00,,,0.00,84,Wunderground v.1.15,2013-01-20 15:50:00,
2013-01-20 09:51:00,13.1,7.2,30.40,NNE,17,1.0,3.0,77,0.00,,,0.00,86,Wunderground v.1.15,2013-01-20 15:51:00,
2013-01-20 09:52:00,13.1,7.5,30.40,NNE,17,0.0,3.0,78,0.00,,,0.00,88,Wunderground v.1.15,2013-01-20 15:52:00,
2013-01-20 09:56:00,13.4,8.1,30.39,North,5,1.0,3.0,79,0.00,,,0.00,98,Wunderground v.1.15,2013-01-20 15:56:00,
2013-01-20 09:57:00,13.4,8.4,30.39,NNE,15,4.0,4.0,80,0.00,,,0.00,104,Wunderground v.1.15,2013-01-20 15:57:00,
2013-01-20 10:00:00,13.3,8.0,30.40,NW,321,5.0,5.0,79,0.00,,,0.00,98,Wunderground v.1.15,2013-01-20 16:00:00,
2013-01-20 10:01:00,13.4,8.4,30.40,NNW,348,1.0,5.0,80,0.00,,,0.00,97,Wunderground v.1.15,2013-01-20 16:01:00,
2013-01-20 10:03:00,13.5,8.8,30.40,NNW,344,2.0,5.0,81,0.00,,,0.00,98,Wunderground v.1.15,2013-01-20 16:03:00,
2013-01-20 10:04:00,13.5,8.8,30.40,NNW,331,3.0,7.0,81,0.00,,,0.00,104,Wunderground v.1.15,2013-01-20 16:04:00,
2013-01-20 10:06:00,13.5,8.8,30.40,NNW,327,0.0,7.0,81,0.00,,,0.00,113,Wunderground v.1.15,2013-01-20 16:06:00,
2013-01-20 10:09:00,13.4,8.9,30.40,NNW,341,1.0,7.0,82,0.00,,,0.00,128,Wunderground v.1.15,2013-01-20 16:09:00,
2013-01-20 10:14:00,13.5,9.3,30.40,NNW,333,3.0,6.0,83,0.00,,,0.00,123,Wunderground v.1.15,2013-01-20 16:14:00,
2013-01-20 10:15:00,13.5,9.3,30.40,NNW,334,0.0,6.0,83,0.00,,,0.00,125,Wunderground v.1.15,2013-01-20 16:15:00,
2013-01-20 10:16:00,13.5,9.3,30.40,NNW,344,2.0,6.0,83,0.00,,,0.00,127,Wunderground v.1.15,2013-01-20 16:16:00,
2013-01-20 10:19:00,13.5,9.3,30.40,NNW,331,5.0,8.0,83,0.00,,,0.00,127,Wunderground v.1.15,2013-01-20 16:19:00,
2013-01-20 10:20:00,13.5,9.3,30.40,NW,307,8.0,8.0,83,0.00,,,0.00,121,Wunderground v.1.15,2013-01-20 16:20:00,
2013-01-20 10:21:00,13.6,9.4,30.40,NW,313,9.0,9.0,83,0.00,,,0.00,120,Wunderground v.1.15,2013-01-20 16:21:00,
2013-01-20 10:25:00,13.5,9.3,30.40,NW,324,4.0,9.0,83,0.00,,,0.00,91,Wunderground v.1.15,2013-01-20 16:25:00,
2013-01-20 10:26:00,13.4,9.2,30.40,NW,323,3.0,9.0,83,0.00,,,0.00,81,Wunderground v.1.15,2013-01-20 16:26:00,
2013-01-20 10:27:00,13.4,9.2,30.40,NW,318,5.0,9.0,83,0.00,,,0.00,81,Wunderground v.1.15,2013-01-20 16:27:00,
2013-01-20 10:28:00,13.3,9.1,30.40,NW,325,2.0,9.0,83,0.00,,,0.00,79,Wunderground v.1.15,2013-01-20 16:28:00,
2013-01-20 10:30:00,13.2,9.0,30.40,NNW,327,2.0,5.0,83,0.00,,,0.00,81,Wunderground v.1.15,2013-01-20 16:30:00,
2013-01-20 10:32:00,13.1,8.9,30.40,NW,326,2.0,5.0,83,0.00,,,0.00,97,Wunderground v.1.15,2013-01-20 16:32:00,
2013-01-20 10:34:00,13.1,9.2,30.40,NW,316,2.0,5.0,84,0.00,,,0.00,104,Wunderground v.1.15,2013-01-20 16:34:00,
2013-01-20 10:38:00,13.1,9.2,30.40,NW,321,2.0,5.0,84,0.00,,,0.00,125,Wunderground v.1.15,2013-01-20 16:38:00,
2013-01-20 10:39:00,13.1,8.9,30.39,NNW,328,2.0,5.0,83,0.00,,,0.00,130,Wunderground v.1.15,2013-01-20 16:39:00,
2013-01-20 10:42:00,13.2,9.3,30.39,NW,317,4.0,6.0,84,0.00,,,0.00,130,Wunderground v.1.15,2013-01-20 16:42:00,
2013-01-20 10:43:00,13.2,9.3,30.39,NW,323,4.0,6.0,84,0.00,,,0.00,130,Wunderground v.1.15,2013-01-20 16:43:00,
2013-01-20 10:44:00,13.2,9.3,30.39,NW,324,4.0,6.0,84,0.00,,,0.00,134,Wunderground v.1.15,2013-01-20 16:44:00,
2013-01-20 10:45:00,13.2,9.3,30.39,NW,324,1.0,6.0,84,0.00,,,0.00,134,Wunderground v.1.15,2013-01-20 16:45:00,
2013-01-20 10:48:00,13.2,9.3,30.39,NW,323,4.0,6.0,84,0.00,,,0.00,151,Wunderground v.1.15,2013-01-20 16:48:00,
2013-01-20 10:49:00,13.1,9.2,30.39,NW,321,2.0,6.0,84,0.00,,,0.00,158,Wunderground v.1.15,2013-01-20 16:49:00,
2013-01-20 10:50:00,13.1,9.2,30.39,NW,316,5.0,5.0,84,0.00,,,0.00,163,Wunderground v.1.15,2013-01-20 16:50:00,
2013-01-20 10:53:00,13.2,9.3,30.39,NW,315,5.0,5.0,84,0.00,,,0.00,183,Wunderground v.1.15,2013-01-20 16:53:00,
2013-01-20 10:54:00,13.3,9.6,30.39,NW,318,1.0,5.0,85,0.00,,,0.00,190,Wunderground v.1.15,2013-01-20 16:54:00,
2013-01-20 10:55:00,13.3,9.6,30.39,NW,318,0.0,5.0,85,0.00,,,0.00,193,Wunderground v.1.15,2013-01-20 16:55:00,
2013-01-20 10:56:00,13.3,9.6,30.39,NW,318,3.0,5.0,85,0.00,,,0.00,197,Wunderground v.1.15,2013-01-20 16:56:00,
2013-01-20 10:59:00,13.3,9.4,30.39,NW,317,3.0,5.0,84,0.00,,,0.00,209,Wunderground v.1.15,2013-01-20 16:59:00,
2013-01-20 11:01:00,13.4,9.5,30.39,NW,317,4.0,4.0,84,0.00,,,0.00,202,Wunderground v.1.15,2013-01-20 17:01:00,
2013-01-20 11:04:00,13.5,9.6,30.40,NW,314,2.0,6.0,84,0.00,,,0.00,192,Wunderground v.1.15,2013-01-20 17:04:00,
2013-01-20 11:06:00,13.6,9.7,30.40,NW,317,3.0,6.0,84,0.00,,,0.00,178,Wunderground v.1.15,2013-01-20 17:06:00,
2013-01-20 11:07:00,13.6,9.7,30.40,NW,317,4.0,6.0,84,0.00,,,0.00,174,Wunderground v.1.15,2013-01-20 17:07:00,
2013-01-20 11:08:00,13.6,9.7,30.39,NW,318,4.0,6.0,84,0.00,,,0.00,171,Wunderground v.1.15,2013-01-20 17:08:00,
2013-01-20 11:10:00,13.6,9.4,30.39,NW,316,0.0,4.0,83,0.00,,,0.00,158,Wunderground v.1.15,2013-01-20 17:10:00,
2013-01-20 11:11:00,13.6,9.7,30.40,NW,318,2.0,4.0,84,0.00,,,0.00,146,Wunderground v.1.15,2013-01-20 17:11:00,
2013-01-20 11:13:00,13.6,9.7,30.40,NW,317,5.0,5.0,84,0.00,,,0.00,139,Wunderground v.1.15,2013-01-20 17:13:00,
2013-01-20 11:15:00,13.6,9.4,30.40,NW,317,3.0,5.0,83,0.00,,,0.00,135,Wunderground v.1.15,2013-01-20 17:15:00,
2013-01-20 11:16:00,13.6,9.4,30.40,NW,314,3.0,5.0,83,0.00,,,0.00,141,Wunderground v.1.15,2013-01-20 17:16:00,
2013-01-20 11:17:00,13.6,9.4,30.40,NW,314,4.0,5.0,83,0.00,,,0.00,141,Wunderground v.1.15,2013-01-20 17:17:00,
2013-01-20 11:18:00,13.5,9.3,30.40,NW,314,1.0,5.0,83,0.00,,,0.00,141,Wunderground v.1.15,2013-01-20 17:18:00,
2013-01-20 11:20:00,13.5,9.6,30.40,NW,317,4.0,5.0,84,0.00,,,0.00,123,Wunderground v.1.15,2013-01-20 17:20:00,
2013-01-20 11:22:00,13.5,9.6,30.40,NW,315,5.0,5.0,84,0.00,,,0.00,120,Wunderground v.1.15,2013-01-20 17:22:00,
2013-01-20 11:25:00,13.6,9.9,30.40,NW,319,5.0,8.0,85,0.00,,,0.00,128,Wunderground v.1.15,2013-01-20 17:25:00,
2013-01-20 11:28:00,13.5,9.6,30.40,NW,317,4.0,8.0,84,0.00,,,0.00,135,Wunderground v.1.15,2013-01-20 17:28:00,
2013-01-20 11:29:00,13.5,9.6,30.40,NW,317,4.0,8.0,84,0.00,,,0.00,134,Wunderground v.1.15,2013-01-20 17:29:00,
2013-01-20 11:31:00,13.5,9.6,30.40,NW,323,1.0,5.0,84,0.00,,,0.00,132,Wunderground v.1.15,2013-01-20 17:31:00,
2013-01-20 11:33:00,13.4,9.5,30.40,NW,318,4.0,5.0,84,0.00,,,0.00,132,Wunderground v.1.15,2013-01-20 17:33:00,
2013-01-20 11:35:00,13.5,9.6,30.40,NW,318,5.0,8.0,84,0.00,,,0.00,127,Wunderground v.1.15,2013-01-20 17:35:00,
2013-01-20 11:36:00,13.4,9.5,30.40,NW,321,3.0,8.0,84,0.00,,,0.00,125,Wunderground v.1.15,2013-01-20 17:36:00,
2013-01-20 11:39:00,13.4,9.2,30.40,NNW,327,3.0,8.0,83,0.00,,,0.00,125,Wunderground v.1.15,2013-01-20 17:39:00,
2013-01-20 11:40:00,13.4,9.2,30.40,NNW,327,1.0,8.0,83,0.00,,,0.00,125,Wunderground v.1.15,2013-01-20 17:40:00,
2013-01-20 11:42:00,13.4,9.2,30.40,NW,320,6.0,6.0,83,0.00,,,0.00,142,Wunderground v.1.15,2013-01-20 17:42:00,
2013-01-20 11:44:00,13.6,9.7,30.40,NNW,331,3.0,6.0,84,0.00,,,0.00,151,Wunderground v.1.15,2013-01-20 17:44:00,
2013-01-20 11:46:00,13.6,9.9,30.40,NW,314,6.0,6.0,85,0.00,,,0.00,149,Wunderground v.1.15,2013-01-20 17:46:00,
2013-01-20 11:49:00,13.7,9.8,30.40,NW,325,2.0,6.0,84,0.00,,,0.00,165,Wunderground v.1.15,2013-01-20 17:49:00,
2013-01-20 11:50:00,13.6,9.7,30.40,NNE,24,3.0,4.0,84,0.00,,,0.00,174,Wunderground v.1.15,2013-01-20 17:50:00,
2013-01-20 11:52:00,13.6,9.7,30.40,NW,317,1.0,4.0,84,0.00,,,0.00,179,Wunderground v.1.15,2013-01-20 17:52:00,
2013-01-20 11:55:00,13.6,9.7,30.40,NNW,327,3.0,5.0,84,0.00,,,0.00,199,Wunderground v.1.15,2013-01-20 17:55:00,
2013-01-20 11:57:00,13.6,9.7,30.40,NW,324,3.0,6.0,84,0.00,,,0.00,200,Wunderground v.1.15,2013-01-20 17:57:00,
2013-01-20 11:58:00,13.6,9.7,30.40,NW,323,4.0,6.0,84,0.00,,,0.00,199,Wunderground v.1.15,2013-01-20 17:58:00,
2013-01-20 12:00:00,13.6,9.7,30.41,NW,319,2.0,4.0,84,0.00,,,0.00,193,Wunderground v.1.15,2013-01-20 18:00:00,
2013-01-20 12:01:00,13.6,9.7,30.40,NW,315,4.0,4.0,84,0.00,,,0.00,192,Wunderground v.1.15,2013-01-20 18:01:00,
2013-01-20 12:02:00,13.6,9.7,30.41,NW,305,6.0,7.0,84,0.00,,,0.00,190,Wunderground v.1.15,2013-01-20 18:02:00,
2013-01-20 12:03:00,13.7,10.0,30.41,NW,311,5.0,7.0,85,0.00,,,0.00,190,Wunderground v.1.15,2013-01-20 18:03:00,
2013-01-20 12:05:00,13.8,10.1,30.41,NW,319,4.0,7.0,85,0.00,,,0.00,206,Wunderground v.1.15,2013-01-20 18:05:00,
2013-01-20 12:06:00,13.8,10.1,30.41,NW,315,5.0,7.0,85,0.00,,,0.00,209,Wunderground v.1.15,2013-01-20 18:06:00,
2013-01-20 12:08:00,13.8,10.1,30.41,NW,318,6.0,8.0,85,0.00,,,0.00,206,Wunderground v.1.15,2013-01-20 18:08:00,
2013-01-20 12:09:00,13.9,10.2,30.40,NW,322,5.0,8.0,85,0.00,,,0.00,214,Wunderground v.1.15,2013-01-20 18:09:00,
2013-01-20 12:12:00,14.1,10.7,30.40,NW,306,2.0,5.0,86,0.00,,,0.00,202,Wunderground v.1.15,2013-01-20 18:12:00,
2013-01-20 12:13:00,14.1,10.7,30.40,NW,310,1.0,5.0,86,0.00,,,0.00,195,Wunderground v.1.15,2013-01-20 18:13:00,
2013-01-20 12:15:00,14.1,10.4,30.40,NW,326,7.0,7.0,85,0.00,,,0.00,199,Wunderground v.1.15,2013-01-20 18:15:00,
2013-01-20 12:17:00,14.0,10.1,30.40,North,9,3.0,7.0,84,0.00,,,0.00,216,Wunderground v.1.15,2013-01-20 18:17:00,
2013-01-20 12:18:00,14.0,10.1,30.40,North,355,4.0,7.0,84,0.00,,,0.00,223,Wunderground v.1.15,2013-01-20 18:18:00,
2013-01-20 12:21:00,14.1,10.2,30.39,NW,319,5.0,5.0,84,0.00,,,0.00,220,Wunderground v.1.15,2013-01-20 18:21:00,
2013-01-20 12:23:00,14.0,10.1,30.39,NW,319,1.0,5.0,84,0.00,,,0.01,202,Wunderground v.1.15,2013-01-20 18:23:00,
2013-01-20 12:24:00,14.1,10.2,30.39,NNW,336,1.0,5.0,84,0.00,,,0.01,200,Wunderground v.1.15,2013-01-20 18:24:00,
2013-01-20 12:26:00,14.1,10.2,30.39,North,5,3.0,5.0,84,0.00,,,0.01,211,Wunderground v.1.15,2013-01-20 18:26:00,
2013-01-20 12:27:00,14.1,10.2,30.39,NNW,338,4.0,5.0,84,0.00,,,0.01,211,Wunderground v.1.15,2013-01-20 18:27:00,
2013-01-20 12:28:00,14.1,10.2,30.39,NW,321,5.0,5.0,84,0.00,,,0.01,214,Wunderground v.1.15,2013-01-20 18:28:00,
2013-01-20 12:30:00,14.2,10.3,30.39,NW,306,2.0,2.0,84,0.00,,,0.01,200,Wunderground v.1.15,2013-01-20 18:30:00,
2013-01-20 12:32:00,14.1,10.2,30.39,NW,323,6.0,8.0,84,0.00,,,0.01,197,Wunderground v.1.15,2013-01-20 18:32:00,
2013-01-20 12:33:00,14.1,10.2,30.39,NW,325,6.0,8.0,84,0.00,,,0.01,199,Wunderground v.1.15,2013-01-20 18:33:00,
2013-01-20 12:35:00,14.1,10.2,30.40,NNW,327,6.0,9.0,84,0.00,,,0.01,220,Wunderground v.1.15,2013-01-20 18:35:00,
2013-01-20 12:38:00,14.1,9.9,30.40,NW,318,8.0,9.0,83,0.00,,,0.01,236,Wunderground v.1.15,2013-01-20 18:38:00,
2013-01-20 12:40:00,14.2,10.3,30.39,NNW,332,1.0,5.0,84,0.00,,,0.01,221,Wunderground v.1.15,2013-01-20 18:40:00,
2013-01-20 12:42:00,14.3,10.4,30.39,NW,325,2.0,7.0,84,0.00,,,0.01,218,Wunderground v.1.15,2013-01-20 18:42:00,
2013-01-20 12:44:00,14.3,10.4,30.39,NW,309,6.0,7.0,84,0.00,,,0.01,227,Wunderground v.1.15,2013-01-20 18:44:00,
2013-01-20 12:47:00,14.2,10.3,30.39,NW,315,7.0,10.0,84,0.00,,,0.01,244,Wunderground v.1.15,2013-01-20 18:47:00,
2013-01-20 12:49:00,14.2,10.0,30.39,NW,311,6.0,10.0,83,0.00,,,0.01,237,Wunderground v.1.15,2013-01-20 18:49:00,
2013-01-20 12:50:00,14.2,10.3,30.39,NW,313,5.0,6.0,84,0.00,,,0.01,232,Wunderground v.1.15,2013-01-20 18:50:00,
2013-01-20 12:54:00,14.2,10.3,30.39,NW,308,7.0,9.0,84,0.00,,,0.01,236,Wunderground v.1.15,2013-01-20 18:54:00,
2013-01-20 12:55:00,14.2,10.3,30.39,WNW,301,6.0,9.0,84,0.00,,,0.01,230,Wunderground v.1.15,2013-01-20 18:55:00,
2013-01-20 12:59:00,14.1,10.2,30.39,NW,307,7.0,9.0,84,0.00,,,0.01,183,Wunderground v.1.15,2013-01-20 18:59:00,
2013-01-20 13:00:00,14.1,10.2,30.38,NW,309,5.0,7.0,84,0.00,,,0.01,179,Wunderground v.1.15,2013-01-20 19:00:00,
2013-01-20 13:01:00,14.1,10.2,30.38,WNW,294,7.0,7.0,84,0.00,,,0.01,179,Wunderground v.1.15,2013-01-20 19:01:00,
2013-01-20 13:04:00,14.0,10.1,30.39,NW,316,6.0,9.0,84,0.00,,,0.01,171,Wunderground v.1.15,2013-01-20 19:04:00,
2013-01-20 13:05:00,14.0,10.1,30.39,NW,310,7.0,9.0,84,0.00,,,0.01,195,Wunderground v.1.15,2013-01-20 19:05:00,
2013-01-20 13:06:00,14.0,10.1,30.39,NW,315,7.0,9.0,84,0.00,,,0.01,195,Wunderground v.1.15,2013-01-20 19:06:00,
2013-01-20 13:07:00,14.0,10.1,30.38,NW,309,6.0,9.0,84,0.00,,,0.01,211,Wunderground v.1.15,2013-01-20 19:07:00,
2013-01-20 13:09:00,14.0,10.1,30.39,WNW,298,8.0,9.0,84,0.00,,,0.01,225,Wunderground v.1.15,2013-01-20 19:09:00,
2013-01-20 13:10:00,14.0,10.1,30.39,NW,313,7.0,8.0,84,0.00,,,0.01,225,Wunderground v.1.15,2013-01-20 19:10:00,
2013-01-20 13:12:00,14.0,10.1,30.39,WNW,296,8.0,8.0,84,0.00,,,0.01,229,Wunderground v.1.15,2013-01-20 19:12:00,
2013-01-20 13:14:00,14.0,10.1,30.38,WNW,298,9.0,9.0,84,0.00,,,0.01,223,Wunderground v.1.15,2013-01-20 19:14:00,
2013-01-20 13:16:00,14.0,10.1,30.38,NW,304,7.0,9.0,84,0.00,,,0.01,218,Wunderground v.1.15,2013-01-20 19:16:00,
2013-01-20 13:17:00,13.9,10.0,30.38,WNW,302,8.0,9.0,84,0.00,,,0.01,218,Wunderground v.1.15,2013-01-20 19:17:00,
2013-01-20 13:19:00,13.9,10.0,30.38,NW,321,7.0,9.0,84,0.00,,,0.01,232,Wunderground v.1.15,2013-01-20 19:19:00,
2013-01-20 13:21:00,13.9,10.0,30.38,NW,323,8.0,9.0,84,0.00,,,0.01,243,Wunderground v.1.15,2013-01-20 19:21:00,
2013-01-20 13:23:00,13.9,10.0,30.38,WNW,303,7.0,9.0,84,0.00,,,0.01,225,Wunderground v.1.15,2013-01-20 19:23:00,
2013-01-20 13:24:00,13.9,10.0,30.38,NW,304,9.0,9.0,84,0.00,,,0.01,225,Wunderground v.1.15,2013-01-20 19:24:00,
2013-01-20 13:26:00,13.8,9.9,30.38,NW,306,9.0,9.0,84,0.00,,,0.01,260,Wunderground v.1.15,2013-01-20 19:26:00,
2013-01-20 13:28:00,13.9,10.0,30.38,NW,314,8.0,9.0,84,0.00,,,0.01,271,Wunderground v.1.15,2013-01-20 19:28:00,
2013-01-20 13:31:00,13.9,10.0,30.38,NW,323,6.0,8.0,84,0.00,,,0.01,301,Wunderground v.1.15,2013-01-20 19:31:00,
2013-01-20 13:34:00,14.1,10.2,30.38,NW,315,8.0,8.0,84,0.00,,,0.01,262,Wunderground v.1.15,2013-01-20 19:34:00,
2013-01-20 13:36:00,14.1,10.2,30.38,NW,312,7.0,9.0,84,0.00,,,0.01,243,Wunderground v.1.15,2013-01-20 19:36:00,
2013-01-20 13:37:00,14.1,9.9,30.38,NW,311,8.0,9.0,83,0.00,,,0.01,251,Wunderground v.1.15,2013-01-20 19:37:00,
2013-01-20 13:39:00,14.1,9.9,30.38,NW,314,9.0,10.0,83,0.00,,,0.01,262,Wunderground v.1.15,2013-01-20 19:39:00,
2013-01-20 13:41:00,14.1,9.9,30.38,NW,306,9.0,9.0,83,0.00,,,0.01,244,Wunderground v.1.15,2013-01-20 19:41:00,
2013-01-20 13:42:00,14.1,9.9,30.38,NW,312,9.0,9.0,83,0.00,,,0.01,237,Wunderground v.1.15,2013-01-20 19:42:00,
2013-01-20 13:43:00,14.1,9.9,30.38,NW,309,7.0,9.0,83,0.00,,,0.01,236,Wunderground v.1.15,2013-01-20 19:43:00,
2013-01-20 13:46:00,14.1,9.9,30.38,NW,315,6.0,9.0,83,0.00,,,0.01,230,Wunderground v.1.15,2013-01-20 19:46:00,
2013-01-20 13:48:00,14.1,9.9,30.38,NW,315,7.0,9.0,83,0.00,,,0.01,232,Wunderground v.1.15,2013-01-20 19:48:00,
2013-01-20 13:49:00,14.1,9.9,30.38,NW,313,8.0,9.0,83,0.00,,,0.01,232,Wunderground v.1.15,2013-01-20 19:49:00,
2013-01-20 13:53:00,14.0,9.8,30.38,NW,321,6.0,8.0,83,0.00,,,0.01,251,Wunderground v.1.15,2013-01-20 19:53:00,
2013-01-20 13:54:00,14.0,10.1,30.38,NW,312,7.0,8.0,84,0.00,,,0.01,255,Wunderground v.1.15,2013-01-20 19:54:00,
2013-01-20 13:58:00,14.0,10.1,30.38,NW,308,4.0,8.0,84,0.00,,,0.01,257,Wunderground v.1.15,2013-01-20 19:58:00,
2013-01-20 13:59:00,14.0,10.1,30.38,NW,316,7.0,8.0,84,0.00,,,0.01,255,Wunderground v.1.15,2013-01-20 19:59:00,
2013-01-20 14:01:00,14.1,10.2,30.38,NW,319,6.0,7.0,84,0.00,,,0.01,250,Wunderground v.1.15,2013-01-20 20:01:00,
2013-01-20 14:03:00,14.2,10.5,30.38,NW,310,7.0,8.0,85,0.00,,,0.01,243,Wunderground v.1.15,2013-01-20 20:03:00,
2013-01-20 14:05:00,14.3,10.4,30.38,NW,308,9.0,9.0,84,0.00,,,0.01,230,Wunderground v.1.15,2013-01-20 20:05:00,
2013-01-20 14:07:00,14.3,10.6,30.38,WNW,303,6.0,9.0,85,0.00,,,0.01,223,Wunderground v.1.15,2013-01-20 20:07:00,
2013-01-20 14:10:00,14.3,10.6,30.37,NW,315,5.0,7.0,85,0.00,,,0.01,214,Wunderground v.1.15,2013-01-20 20:10:00,
2013-01-20 14:11:00,14.4,10.7,30.38,NW,320,2.0,7.0,85,0.00,,,0.01,211,Wunderground v.1.15,2013-01-20 20:11:00,
2013-01-20 14:13:00,14.4,10.7,30.38,NW,311,7.0,9.0,85,0.00,,,0.01,211,Wunderground v.1.15,2013-01-20 20:13:00,
2013-01-20 14:15:00,14.4,10.7,30.38,NW,319,5.0,9.0,85,0.00,,,0.01,213,Wunderground v.1.15,2013-01-20 20:15:00,
2013-01-20 14:16:00,14.4,10.7,30.38,NW,323,4.0,9.0,85,0.00,,,0.01,214,Wunderground v.1.15,2013-01-20 20:16:00,
2013-01-20 14:17:00,14.4,10.7,30.38,NNW,329,3.0,9.0,85,0.00,,,0.01,214,Wunderground v.1.15,2013-01-20 20:17:00,
2013-01-20 14:20:00,14.3,10.4,30.38,NW,319,1.0,6.0,84,0.00,,,0.01,232,Wunderground v.1.15,2013-01-20 20:20:00,
2013-01-20 14:21:00,14.4,10.4,30.38,NW,316,5.0,6.0,84,0.00,,,0.01,244,Wunderground v.1.15,2013-01-20 20:21:00,
2013-01-20 14:22:00,14.3,10.4,30.38,NW,310,4.0,6.0,84,0.00,,,0.01,253,Wunderground v.1.15,2013-01-20 20:22:00,
2013-01-20 14:23:00,14.4,10.4,30.38,NW,310,7.0,7.0,84,0.00,,,0.01,255,Wunderground v.1.15,2013-01-20 20:23:00,
2013-01-20 14:26:00,14.4,10.7,30.38,NW,323,4.0,7.0,85,0.00,,,0.01,209,Wunderground v.1.15,2013-01-20 20:26:00,
2013-01-20 14:27:00,14.4,10.7,30.38,NW,325,3.0,7.0,85,0.00,,,0.01,197,Wunderground v.1.15,2013-01-20 20:27:00,
2013-01-20 14:28:00,14.3,10.6,30.38,NW,311,6.0,7.0,85,0.00,,,0.01,193,Wunderground v.1.15,2013-01-20 20:28:00,
2013-01-20 14:32:00,14.2,10.3,30.38,NNW,329,3.0,6.0,84,0.00,,,0.01,186,Wunderground v.1.15,2013-01-20 20:32:00,
2013-01-20 14:33:00,14.2,10.3,30.39,NW,317,5.0,7.0,84,0.00,,,0.01,186,Wunderground v.1.15,2013-01-20 20:33:00,
2013-01-20 14:34:00,14.2,10.3,30.39,NNW,332,3.0,7.0,84,0.00,,,0.01,186,Wunderground v.1.15,2013-01-20 20:34:00,
2013-01-20 14:36:00,14.2,10.3,30.39,NW,322,5.0,7.0,84,0.00,,,0.01,181,Wunderground v.1.15,2013-01-20 20:36:00,
2013-01-20 14:37:00,14.2,10.3,30.38,NW,323,7.0,8.0,84,0.00,,,0.01,179,Wunderground v.1.15,2013-01-20 20:37:00,
2013-01-20 14:39:00,14.1,10.2,30.38,NW,322,5.0,8.0,84,0.00,,,0.01,174,Wunderground v.1.15,2013-01-20 20:39:00,
2013-01-20 14:40:00,14.1,10.2,30.38,NW,320,6.0,6.0,84,0.00,,,0.01,172,Wunderground v.1.15,2013-01-20 20:40:00,
2013-01-20 14:44:00,14.1,10.2,30.38,NW,324,3.0,6.0,84,0.00,,,0.01,163,Wunderground v.1.15,2013-01-20 20:44:00,
2013-01-20 14:46:00,14.1,10.2,30.38,NW,319,7.0,7.0,84,0.00,,,0.01,165,Wunderground v.1.15,2013-01-20 20:46:00,
2013-01-20 14:49:00,14.1,10.2,30.39,NW,320,6.0,8.0,84,0.00,,,0.01,162,Wunderground v.1.15,2013-01-20 20:49:00,
2013-01-20 14:51:00,14.2,10.3,30.39,NW,317,5.0,6.0,84,0.00,,,0.01,163,Wunderground v.1.15,2013-01-20 20:51:00,
2013-01-20 14:52:00,14.2,10.3,30.39,NW,318,6.0,6.0,84,0.00,,,0.01,163,Wunderground v.1.15,2013-01-20 20:52:00,
2013-01-20 14:56:00,14.2,10.5,30.39,NW,323,4.0,7.0,85,0.00,,,0.01,178,Wunderground v.1.15,2013-01-20 20:56:00,
2013-01-20 14:57:00,14.2,10.5,30.39,NW,317,4.0,7.0,85,0.00,,,0.01,178,Wunderground v.1.15,2013-01-20 20:57:00,
2013-01-20 14:58:00,14.2,10.5,30.38,NW,315,4.0,7.0,85,0.00,,,0.01,176,Wunderground v.1.15,2013-01-20 20:58:00,
2013-01-20 15:02:00,14.3,10.6,30.38,NW,313,7.0,7.0,85,0.00,,,0.01,176,Wunderground v.1.15,2013-01-20 21:02:00,
2013-01-20 15:03:00,14.3,10.4,30.38,NW,317,7.0,8.0,84,0.00,,,0.01,176,Wunderground v.1.15,2013-01-20 21:03:00,
2013-01-20 15:04:00,14.3,10.6,30.38,NW,321,6.0,8.0,85,0.00,,,0.01,163,Wunderground v.1.15,2013-01-20 21:04:00,
2013-01-20 15:09:00,14.4,10.7,30.38,NW,321,5.0,8.0,85,0.00,,,0.01,163,Wunderground v.1.15,2013-01-20 21:09:00,
2013-01-20 15:10:00,14.4,10.7,30.38,NW,322,8.0,8.0,85,0.00,,,0.01,165,Wunderground v.1.15,2013-01-20 21:10:00,
2013-01-20 15:13:00,14.4,10.7,30.39,NW,311,9.0,9.0,85,0.00,,,0.01,158,Wunderground v.1.15,2013-01-20 21:13:00,
2013-01-20 15:14:00,14.4,10.7,30.39,NW,323,7.0,9.0,85,0.00,,,0.01,155,Wunderground v.1.15,2013-01-20 21:14:00,
2013-01-20 15:16:00,14.3,10.4,30.38,NW,323,5.0,9.0,84,0.00,,,0.01,148,Wunderground v.1.15,2013-01-20 21:16:00,
2013-01-20 15:17:00,14.3,10.6,30.38,NW,319,5.0,9.0,85,0.00,,,0.01,132,Wunderground v.1.15,2013-01-20 21:17:00,
2013-01-20 15:19:00,14.3,10.6,30.39,NW,317,8.0,9.0,85,0.00,,,0.01,128,Wunderground v.1.15,2013-01-20 21:19:00,
2013-01-20 15:20:00,14.3,10.6,30.39,NW,313,7.0,7.0,85,0.00,,,0.01,128,Wunderground v.1.15,2013-01-20 21:20:00,
2013-01-20 15:23:00,14.3,10.4,30.38,NW,320,7.0,9.0,84,0.00,,,0.01,128,Wunderground v.1.15,2013-01-20 21:23:00,
2013-01-20 15:25:00,14.3,10.6,30.39,NW,321,10.0,10.0,85,0.00,,,0.01,125,Wunderground v.1.15,2013-01-20 21:25:00,
2013-01-20 15:27:00,14.3,10.4,30.39,NW,324,7.0,10.0,84,0.00,,,0.01,128,Wunderground v.1.15,2013-01-20 21:27:00,
2013-01-20 15:29:00,14.3,10.4,30.39,NW,306,4.0,10.0,84,0.00,,,0.01,137,Wunderground v.1.15,2013-01-20 21:29:00,
2013-01-20 15:31:00,14.3,10.4,30.39,NW,323,4.0,10.0,84,0.00,,,0.01,134,Wunderground v.1.15,2013-01-20 21:31:00,
2013-01-20 15:33:00,14.3,10.4,30.39,NW,312,11.0,11.0,84,0.00,,,0.01,128,Wunderground v.1.15,2013-01-20 21:33:00,
2013-01-20 15:35:00,14.3,10.4,30.39,NW,307,8.0,11.0,84,0.00,,,0.01,123,Wunderground v.1.15,2013-01-20 21:35:00,
2013-01-20 15:36:00,14.3,10.4,30.39,NW,315,9.0,11.0,84,0.00,,,0.01,121,Wunderground v.1.15,2013-01-20 21:36:00,
2013-01-20 15:37:00,14.3,10.1,30.39,NW,323,6.0,11.0,83,0.00,,,0.01,120,Wunderground v.1.15,2013-01-20 21:37:00,
2013-01-20 15:38:00,14.3,10.1,30.39,NW,319,9.0,11.0,83,0.00,,,0.01,118,Wunderground v.1.15,2013-01-20 21:38:00,
2013-01-20 15:40:00,14.2,10.0,30.39,NW,310,6.0,9.0,83,0.00,,,0.01,114,Wunderground v.1.15,2013-01-20 21:40:00,
2013-01-20 15:41:00,14.3,10.4,30.39,NW,311,6.0,9.0,84,0.00,,,0.01,114,Wunderground v.1.15,2013-01-20 21:41:00,
2013-01-20 15:42:00,14.2,10.3,30.39,NW,318,5.0,9.0,84,0.00,,,0.01,113,Wunderground v.1.15,2013-01-20 21:42:00,
2013-01-20 15:46:00,14.2,10.0,30.39,NW,313,8.0,9.0,83,0.00,,,0.01,107,Wunderground v.1.15,2013-01-20 21:46:00,
2013-01-20 15:47:00,14.1,9.9,30.39,NW,309,9.0,9.0,83,0.00,,,0.01,104,Wunderground v.1.15,2013-01-20 21:47:00,
2013-01-20 15:48:00,14.2,10.0,30.39,NW,321,6.0,9.0,83,0.00,,,0.01,104,Wunderground v.1.15,2013-01-20 21:48:00,
2013-01-20 15:52:00,14.1,9.9,30.39,NNW,334,4.0,6.0,83,0.00,,,0.01,95,Wunderground v.1.15,2013-01-20 21:52:00,
2013-01-20 15:53:00,14.1,9.9,30.39,NW,324,2.0,6.0,83,0.00,,,0.01,93,Wunderground v.1.15,2013-01-20 21:53:00,
2013-01-20 15:54:00,14.1,9.9,30.38,NNW,327,4.0,6.0,83,0.00,,,0.01,91,Wunderground v.1.15,2013-01-20 21:54:00,
2013-01-20 15:55:00,14.1,9.9,30.39,NW,313,6.0,6.0,83,0.00,,,0.01,91,Wunderground v.1.15,2013-01-20 21:55:00,
2013-01-20 15:58:00,14.0,9.8,30.38,NW,323,7.0,8.0,83,0.00,,,0.01,84,Wunderground v.1.15,2013-01-20 21:58:00,
2013-01-20 16:00:00,14.0,9.8,30.39,NW,320,7.0,7.0,83,0.00,,,0.01,83,Wunderground v.1.15,2013-01-20 22:00:00,
2013-01-20 16:03:00,14.0,9.8,30.39,NW,319,7.0,9.0,83,0.00,,,0.01,81,Wunderground v.1.15,2013-01-20 22:03:00,
2013-01-20 16:06:00,13.9,9.7,30.38,NW,314,8.0,9.0,83,0.00,,,0.01,77,Wunderground v.1.15,2013-01-20 22:06:00,
2013-01-20 16:08:00,13.9,9.7,30.39,NW,319,5.0,9.0,83,0.00,,,0.01,76,Wunderground v.1.15,2013-01-20 22:08:00,
2013-01-20 16:12:00,13.8,9.6,30.39,NW,319,6.0,8.0,83,0.00,,,0.01,70,Wunderground v.1.15,2013-01-20 22:12:00,
2013-01-20 16:14:00,13.9,10.0,30.39,NW,315,5.0,8.0,84,0.00,,,0.01,69,Wunderground v.1.15,2013-01-20 22:14:00,
2013-01-20 16:16:00,13.9,10.0,30.39,NW,312,6.0,9.0,84,0.00,,,0.01,67,Wunderground v.1.15,2013-01-20 22:16:00,
2013-01-20 16:20:00,13.9,10.0,30.39,NW,313,6.0,9.0,84,0.00,,,0.01,62,Wunderground v.1.15,2013-01-20 22:20:00,
2013-01-20 16:21:00,13.8,9.9,30.39,NW,321,5.0,7.0,84,0.00,,,0.01,60,Wunderground v.1.15,2013-01-20 22:21:00,
2013-01-20 16:22:00,13.9,10.0,30.39,NW,313,6.0,7.0,84,0.00,,,0.01,60,Wunderground v.1.15,2013-01-20 22:22:00,
2013-01-20 16:24:00,13.8,9.9,30.39,NW,311,6.0,8.0,84,0.00,,,0.01,54,Wunderground v.1.15,2013-01-20 22:24:00,
2013-01-20 16:27:00,13.8,9.9,30.39,NW,315,6.0,8.0,84,0.00,,,0.01,54,Wunderground v.1.15,2013-01-20 22:27:00,
2013-01-20 16:28:00,13.8,9.9,30.39,WNW,301,6.0,8.0,84,0.00,,,0.01,54,Wunderground v.1.15,2013-01-20 22:28:00,
2013-01-20 16:30:00,13.8,9.9,30.39,NW,314,5.0,6.0,84,0.00,,,0.01,53,Wunderground v.1.15,2013-01-20 22:30:00,
2013-01-20 16:31:00,13.7,9.8,30.39,NW,312,7.0,7.0,84,0.00,,,0.01,51,Wunderground v.1.15,2013-01-20 22:31:00,
2013-01-20 16:33:00,13.7,9.8,30.39,NW,308,6.0,7.0,84,0.00,,,0.01,49,Wunderground v.1.15,2013-01-20 22:33:00,
2013-01-20 16:34:00,13.7,9.8,30.39,NW,311,5.0,7.0,84,0.00,,,0.01,49,Wunderground v.1.15,2013-01-20 22:34:00,
2013-01-20 16:37:00,13.7,9.8,30.39,NW,308,7.0,7.0,84,0.00,,,0.01,42,Wunderground v.1.15,2013-01-20 22:37:00,
2013-01-20 16:38:00,13.7,9.8,30.39,NW,311,6.0,7.0,84,0.00,,,0.01,42,Wunderground v.1.15,2013-01-20 22:38:00,
2013-01-20 16:39:00,13.6,9.7,30.39,NNW,327,7.0,7.0,84,0.00,,,0.01,42,Wunderground v.1.15,2013-01-20 22:39:00,
2013-01-20 16:40:00,13.7,9.8,30.39,NW,320,6.0,7.0,84,0.00,,,0.01,40,Wunderground v.1.15,2013-01-20 22:40:00,
2013-01-20 16:42:00,13.7,9.8,30.39,NW,311,5.0,7.0,84,0.00,,,0.01,39,Wunderground v.1.15,2013-01-20 22:42:00,
2013-01-20 16:44:00,13.6,9.9,30.39,NW,306,7.0,7.0,85,0.00,,,0.01,37,Wunderground v.1.15,2013-01-20 22:44:00,
2013-01-20 16:45:00,13.7,10.0,30.39,NW,306,6.0,7.0,85,0.00,,,0.01,35,Wunderground v.1.15,2013-01-20 22:45:00,
2013-01-20 16:49:00,13.6,9.9,30.39,NW,312,6.0,8.0,85,0.00,,,0.01,33,Wunderground v.1.15,2013-01-20 22:49:00,
2013-01-20 16:50:00,13.6,9.9,30.39,NW,315,5.0,6.0,85,0.00,,,0.01,30,Wunderground v.1.15,2013-01-20 22:50:00,
2013-01-20 16:54:00,13.6,9.9,30.39,NW,313,5.0,6.0,85,0.00,,,0.01,25,Wunderground v.1.15,2013-01-20 22:54:00,
2013-01-20 16:57:00,13.6,9.9,30.39,WNW,300,4.0,6.0,85,0.00,,,0.01,21,Wunderground v.1.15,2013-01-20 22:57:00,
2013-01-20 16:58:00,13.6,9.9,30.39,WNW,303,5.0,7.0,85,0.00,,,0.01,19,Wunderground v.1.15,2013-01-20 22:58:00,
2013-01-20 16:59:00,13.6,9.9,30.39,WNW,300,7.0,7.0,85,0.00,,,0.01,18,Wunderground v.1.15,2013-01-20 22:59:00,
2013-01-20 17:00:00,13.6,9.9,30.39,WNW,302,6.0,6.0,85,0.00,,,0.01,18,Wunderground v.1.15,2013-01-20 23:00:00,
2013-01-20 17:02:00,13.6,9.9,30.39,WNW,300,5.0,6.0,85,0.00,,,0.01,16,Wunderground v.1.15,2013-01-20 23:02:00,
2013-01-20 17:04:00,13.6,9.9,30.39,WNW,302,5.0,6.0,85,0.00,,,0.01,16,Wunderground v.1.15,2013-01-20 23:04:00,
2013-01-20 17:06:00,13.6,9.9,30.39,WNW,300,5.0,6.0,85,0.00,,,0.01,16,Wunderground v.1.15,2013-01-20 23:06:00,
2013-01-20 17:08:00,13.6,9.9,30.39,NW,305,6.0,6.0,85,0.00,,,0.01,14,Wunderground v.1.15,2013-01-20 23:08:00,
2013-01-20 17:10:00,13.6,9.9,30.39,NW,304,4.0,5.0,85,0.00,,,0.01,12,Wunderground v.1.15,2013-01-20 23:10:00,
2013-01-20 17:11:00,13.6,9.9,30.38,WNW,296,5.0,5.0,85,0.00,,,0.01,12,Wunderground v.1.15,2013-01-20 23:11:00,
2013-01-20 17:12:00,13.6,9.9,30.38,NW,312,5.0,5.0,85,0.00,,,0.01,11,Wunderground v.1.15,2013-01-20 23:12:00,
2013-01-20 17:13:00,13.6,9.9,30.38,WNW,303,6.0,6.0,85,0.00,,,0.01,9,Wunderground v.1.15,2013-01-20 23:13:00,
2013-01-20 17:15:00,13.6,9.9,30.38,WNW,303,8.0,9.0,85,0.00,,,0.01,5,Wunderground v.1.15,2013-01-20 23:15:00,
2013-01-20 17:18:00,13.6,9.9,30.38,NW,306,6.0,9.0,85,0.00,,,0.01,5,Wunderground v.1.15,2013-01-20 23:18:00,
2013-01-20 17:22:00,13.4,9.5,30.38,NW,309,6.0,7.0,84,0.00,,,0.01,0,Wunderground v.1.15,2013-01-20 23:22:00,
2013-01-20 17:23:00,13.5,9.6,30.38,NW,309,7.0,7.0,84,0.00,,,0.01,0,Wunderground v.1.15,2013-01-20 23:23:00,
2013-01-20 17:24:00,13.4,9.5,30.38,NW,307,5.0,7.0,84,0.00,,,0.01,0,Wunderground v.1.15,2013-01-20 23:24:00,
2013-01-20 17:28:00,13.3,9.4,30.38,WNW,300,4.0,7.0,84,0.00,,,0.01,0,Wunderground v.1.15,2013-01-20 23:28:00,
2013-01-20 17:29:00,13.3,9.4,30.38,WNW,300,4.0,7.0,84,0.00,,,0.01,0,Wunderground v.1.15,2013-01-20 23:29:00,
2013-01-20 17:30:00,13.2,9.3,30.38,WNW,299,4.0,5.0,84,0.00,,,0.01,0,Wunderground v.1.15,2013-01-20 23:30:00,
2013-01-20 17:33:00,13.2,9.3,30.38,WNW,288,6.0,7.0,84,0.00,,,0.01,0,Wunderground v.1.15,2013-01-20 23:33:00,
2013-01-20 17:34:00,13.2,9.3,30.38,WNW,292,5.0,7.0,84,0.00,,,0.01,0,Wunderground v.1.15,2013-01-20 23:34:00,
2013-01-20 17:36:00,13.1,9.2,30.38,WNW,294,5.0,7.0,84,0.00,,,0.01,0,Wunderground v.1.15,2013-01-20 23:36:00,
2013-01-20 17:39:00,13.0,9.1,30.38,WNW,289,7.0,8.0,84,0.00,,,0.01,0,Wunderground v.1.15,2013-01-20 23:39:00,
2013-01-20 17:41:00,13.0,9.1,30.39,WNW,287,7.0,8.0,84,0.00,,,0.01,0,Wunderground v.1.15,2013-01-20 23:41:00,
2013-01-20 17:44:00,12.9,9.0,30.39,WNW,282,8.0,8.0,84,0.00,,,0.01,0,Wunderground v.1.15,2013-01-20 23:44:00,
2013-01-20 17:45:00,12.9,9.0,30.39,WNW,282,8.0,9.0,84,0.00,,,0.01,0,Wunderground v.1.15,2013-01-20 23:45:00,
2013-01-20 17:46:00,12.9,9.0,30.39,WNW,289,7.0,9.0,84,0.00,,,0.01,0,Wunderground v.1.15,2013-01-20 23:46:00,
2013-01-20 17:48:00,12.9,9.0,30.39,WNW,288,8.0,9.0,84,0.00,,,0.01,0,Wunderground v.1.15,2013-01-20 23:48:00,
2013-01-20 17:49:00,12.8,9.1,30.39,WNW,289,7.0,9.0,85,0.00,,,0.01,0,Wunderground v.1.15,2013-01-20 23:49:00,
2013-01-20 17:51:00,12.8,9.1,30.39,WNW,290,6.0,8.0,85,0.00,,,0.01,0,Wunderground v.1.15,2013-01-20 23:51:00,
2013-01-20 17:54:00,12.7,9.0,30.39,WNW,291,7.0,8.0,85,0.00,,,0.01,0,Wunderground v.1.15,2013-01-20 23:54:00,
2013-01-20 17:55:00,12.7,9.0,30.39,WNW,288,6.0,8.0,85,0.00,,,0.01,0,Wunderground v.1.15,2013-01-20 23:55:00,
2013-01-20 17:57:00,12.7,9.0,30.39,WNW,287,6.0,8.0,85,0.00,,,0.01,0,Wunderground v.1.15,2013-01-20 23:57:00,
2013-01-20 18:00:00,12.6,8.9,30.39,WNW,294,6.0,6.0,85,0.00,,,0.01,0,Wunderground v.1.15,2013-01-21 00:00:00,
2013-01-20 18:01:00,12.6,8.9,30.39,WNW,294,7.0,7.0,85,0.00,,,0.01,0,Wunderground v.1.15,2013-01-21 00:01:00,
2013-01-20 18:02:00,12.5,8.8,30.39,WNW,295,6.0,8.0,85,0.00,,,0.01,0,Wunderground v.1.15,2013-01-21 00:02:00,
2013-01-20 18:05:00,12.3,8.7,30.39,WNW,297,6.0,8.0,85,0.00,,,0.01,0,Wunderground v.1.15,2013-01-21 00:05:00,
2013-01-20 18:06:00,12.3,8.7,30.39,WNW,299,7.0,8.0,85,0.00,,,0.01,0,Wunderground v.1.15,2013-01-21 00:06:00,
2013-01-20 18:08:00,12.2,8.6,30.39,WNW,295,7.0,8.0,85,0.00,,,0.01,0,Wunderground v.1.15,2013-01-21 00:08:00,
2013-01-20 18:11:00,11.9,8.0,30.39,WNW,298,5.0,7.0,84,0.00,,,0.01,0,Wunderground v.1.15,2013-01-21 00:11:00,
2013-01-20 18:12:00,11.9,8.0,30.39,WNW,297,6.0,7.0,84,0.00,,,0.01,0,Wunderground v.1.15,2013-01-21 00:12:00,
2013-01-20 18:13:00,11.8,7.9,30.39,WNW,298,5.0,7.0,84,0.00,,,0.01,0,Wunderground v.1.15,2013-01-21 00:13:00,
2013-01-20 18:15:00,11.7,7.8,30.39,WNW,297,6.0,7.0,84,0.00,,,0.01,0,Wunderground v.1.15,2013-01-21 00:15:00,
2013-01-20 18:19:00,11.6,7.7,30.39,WNW,294,6.0,7.0,84,0.00,,,0.01,0,Wunderground v.1.15,2013-01-21 00:19:00,
2013-01-20 18:20:00,11.5,7.6,30.39,WNW,294,6.0,6.0,84,0.00,,,0.01,0,Wunderground v.1.15,2013-01-21 00:20:00,
2013-01-20 18:21:00,11.4,7.5,30.39,WNW,296,6.0,6.0,84,0.00,,,0.01,0,Wunderground v.1.15,2013-01-21 00:21:00,
2013-01-20 18:22:00,11.4,7.5,30.39,WNW,297,5.0,6.0,84,0.00,,,0.01,0,Wunderground v.1.15,2013-01-21 00:22:00,
2013-01-20 18:24:00,11.3,7.4,30.39,WNW,294,6.0,6.0,84,0.00,,,0.01,0,Wunderground v.1.15,2013-01-21 00:24:00,
2013-01-20 18:26:00,11.2,7.3,30.39,WNW,295,5.0,7.0,84,0.00,,,0.01,0,Wunderground v.1.15,2013-01-21 00:26:00,
2013-01-20 18:27:00,11.2,7.3,30.39,WNW,296,6.0,7.0,84,0.00,,,0.01,0,Wunderground v.1.15,2013-01-21 00:27:00,
2013-01-20 18:30:00,11.1,7.2,30.38,WNW,297,5.0,6.0,84,0.00,,,0.01,0,Wunderground v.1.15,2013-01-21 00:30:00,
2013-01-20 18:31:00,11.0,7.1,30.38,WNW,297,5.0,6.0,84,0.00,,,0.01,0,Wunderground v.1.15,2013-01-21 00:31:00,
2013-01-20 18:32:00,11.0,7.1,30.38,WNW,298,5.0,6.0,84,0.00,,,0.01,0,Wunderground v.1.15,2013-01-21 00:32:00,
2013-01-20 18:33:00,10.9,7.0,30.38,WNW,299,5.0,6.0,84,0.00,,,0.01,0,Wunderground v.1.15,2013-01-21 00:33:00,
2013-01-20 18:35:00,10.8,6.9,30.38,WNW,301,5.0,6.0,84,0.00,,,0.01,0,Wunderground v.1.15,2013-01-21 00:35:00,
2013-01-20 18:38:00,10.6,6.7,30.39,WNW,298,6.0,6.0,84,0.00,,,0.01,0,Wunderground v.1.15,2013-01-21 00:38:00,
2013-01-20 18:40:00,10.4,6.5,30.39,WNW,296,5.0,6.0,84,0.00,,,0.01,0,Wunderground v.1.15,2013-01-21 00:40:00,
2013-01-20 18:43:00,10.1,6.0,30.39,WNW,296,7.0,7.0,83,0.00,,,0.01,0,Wunderground v.1.15,2013-01-21 00:43:00,
2013-01-20 18:45:00,9.9,5.8,30.39,WNW,297,7.0,7.0,83,0.00,,,0.01,0,Wunderground v.1.15,2013-01-21 00:45:00,
2013-01-20 18:47:00,9.8,5.7,30.39,WNW,294,7.0,8.0,83,0.00,,,0.01,0,Wunderground v.1.15,2013-01-21 00:47:00,
2013-01-20 18:48:00,9.8,5.9,30.39,WNW,290,8.0,8.0,84,0.00,,,0.01,0,Wunderground v.1.15,2013-01-21 00:48:00,
2013-01-20 18:51:00,9.8,6.2,30.39,WNW,292,7.0,8.0,85,0.00,,,0.01,0,Wunderground v.1.15,2013-01-21 00:51:00,
2013-01-20 18:52:00,9.8,6.2,30.39,WNW,290,7.0,8.0,85,0.00,,,0.01,0,Wunderground v.1.15,2013-01-21 00:52:00,
2013-01-20 18:54:00,9.9,6.3,30.39,WNW,290,7.0,8.0,85,0.00,,,0.01,0,Wunderground v.1.15,2013-01-21 00:54:00,
2013-01-20 18:56:00,9.9,6.3,30.40,WNW,294,7.0,8.0,85,0.00,,,0.01,0,Wunderground v.1.15,2013-01-21 00:56:00,
2013-01-20 18:59:00,9.9,6.3,30.39,WNW,294,7.0,8.0,85,0.00,,,0.01,0,Wunderground v.1.15,2013-01-21 00:59:00,
2013-01-20 19:01:00,10.0,6.6,30.39,WNW,295,6.0,8.0,86,0.00,,,0.01,0,Wunderground v.1.15,2013-01-21 01:01:00,
2013-01-20 19:02:00,10.0,6.6,30.40,WNW,296,7.0,8.0,86,0.00,,,0.01,0,Wunderground v.1.15,2013-01-21 01:02:00,
2013-01-20 19:05:00,10.0,6.6,30.40,WNW,298,6.0,8.0,86,0.00,,,0.01,0,Wunderground v.1.15,2013-01-21 01:05:00,
2013-01-20 19:06:00,10.0,6.6,30.40,WNW,298,7.0,8.0,86,0.00,,,0.01,0,Wunderground v.1.15,2013-01-21 01:06:00,
2013-01-20 19:07:00,10.1,6.7,30.40,WNW,296,7.0,8.0,86,0.00,,,0.01,0,Wunderground v.1.15,2013-01-21 01:07:00,
2013-01-20 19:08:00,10.0,6.6,30.40,WNW,296,7.0,8.0,86,0.00,,,0.01,0,Wunderground v.1.15,2013-01-21 01:08:00,
2013-01-20 19:12:00,10.0,6.4,30.40,WNW,293,5.0,7.0,85,0.00,,,0.01,0,Wunderground v.1.15,2013-01-21 01:12:00,
2013-01-20 19:13:00,10.0,6.4,30.40,WNW,291,6.0,7.0,85,0.00,,,0.01,0,Wunderground v.1.15,2013-01-21 01:13:00,
2013-01-20 19:15:00,9.9,6.3,30.40,WNW,288,4.0,7.0,85,0.00,,,0.01,0,Wunderground v.1.15,2013-01-21 01:15:00,
2013-01-20 19:17:00,9.8,6.2,30.40,WNW,290,5.0,7.0,85,0.00,,,0.01,0,Wunderground v.1.15,2013-01-21 01:17:00,
2013-01-20 19:18:00,9.7,6.1,30.40,WNW,292,5.0,7.0,85,0.00,,,0.01,0,Wunderground v.1.15,2013-01-21 01:18:00,
2013-01-20 19:19:00,9.6,5.7,30.40,WNW,293,5.0,7.0,84,0.00,,,0.01,0,Wunderground v.1.15,2013-01-21 01:19:00,
2013-01-20 19:20:00,9.5,5.6,30.40,WNW,293,5.0,5.0,84,0.00,,,0.01,0,Wunderground v.1.15,2013-01-21 01:20:00,
2013-01-20 19:25:00,8.9,4.8,30.40,WNW,289,6.0,6.0,83,0.00,,,0.01,0,Wunderground v.1.15,2013-01-21 01:25:00,
2013-01-20 19:26:00,8.8,4.7,30.40,WNW,288,4.0,6.0,83,0.00,,,0.01,0,Wunderground v.1.15,2013-01-21 01:26:00,
2013-01-20 19:30:00,8.2,3.8,30.39,WNW,282,5.0,5.0,82,0.00,,,0.01,0,Wunderground v.1.15,2013-01-21 01:30:00,
2013-01-20 19:31:00,8.1,3.7,30.39,West,278,5.0,5.0,82,0.00,,,0.01,0,Wunderground v.1.15,2013-01-21 01:31:00,
2013-01-20 19:36:00,6.9,2.3,30.39,West,277,3.0,5.0,81,0.00,,,0.01,0,Wunderground v.1.15,2013-01-21 01:36:00,
2013-01-20 19:37:00,6.6,2.0,30.39,West,277,3.0,5.0,81,0.00,,,0.01,0,Wunderground v.1.15,2013-01-21 01:37:00,
2013-01-20 19:39:00,5.9,1.3,30.39,West,277,3.0,5.0,81,0.00,,,0.01,0,Wunderground v.1.15,2013-01-21 01:39:00,
2013-01-20 19:42:00,4.7,-0.1,30.39,West,277,2.0,4.0,80,0.00,,,0.01,0,Wunderground v.1.15,2013-01-21 01:42:00,
2013-01-20 19:43:00,4.3,-0.5,30.39,West,277,2.0,4.0,80,0.00,,,0.01,0,Wunderground v.1.15,2013-01-21 01:43:00,
2013-01-20 19:44:00,3.8,-1.0,30.39,West,277,2.0,4.0,80,0.00,,,0.01,0,Wunderground v.1.15,2013-01-21 01:44:00,
2013-01-20 19:45:00,3.7,-1.1,30.39,West,277,2.0,4.0,80,0.00,,,0.01,0,Wunderground v.1.15,2013-01-21 01:45:00,
2013-01-20 19:48:00,2.8,-1.7,30.38,West,277,3.0,4.0,81,0.00,,,0.01,0,Wunderground v.1.15,2013-01-21 01:48:00,
2013-01-20 19:49:00,2.8,-1.7,30.38,West,277,2.0,4.0,81,0.00,,,0.01,0,Wunderground v.1.15,2013-01-21 01:49:00,
2013-01-20 19:54:00,2.4,-1.6,30.38,West,277,1.0,2.0,83,0.00,,,0.01,0,Wunderground v.1.15,2013-01-21 01:54:00,
2013-01-20 19:55:00,2.3,-1.7,30.38,West,277,1.0,2.0,83,0.00,,,0.01,0,Wunderground v.1.15,2013-01-21 01:55:00,
2013-01-20 19:59:00,1.7,-2.3,30.38,West,277,3.0,5.0,83,0.00,,,0.01,0,Wunderground v.1.15,2013-01-21 01:59:00,
2013-01-20 20:00:00,1.7,-2.3,30.38,West,281,4.0,4.0,83,0.00,,,0.01,0,Wunderground v.1.15,2013-01-21 02:00:00,
2013-01-20 20:01:00,1.6,-2.1,30.39,WNW,287,4.0,4.0,84,0.00,,,0.01,0,Wunderground v.1.15,2013-01-21 02:01:00,
2013-01-20 20:05:00,1.4,-2.3,30.39,WNW,292,4.0,5.0,84,0.00,,,0.01,0,Wunderground v.1.15,2013-01-21 02:05:00,
2013-01-20 20:07:00,1.3,-2.4,30.39,WNW,292,5.0,5.0,84,0.00,,,0.01,0,Wunderground v.1.15,2013-01-21 02:07:00,
2013-01-20 20:08:00,1.3,-2.4,30.39,WNW,293,5.0,5.0,84,0.00,,,0.01,0,Wunderground v.1.15,2013-01-21 02:08:00,
2013-01-20 20:10:00,1.4,-2.1,30.39,WNW,293,5.0,5.0,85,0.00,,,0.01,0,Wunderground v.1.15,2013-01-21 02:10:00,
2013-01-20 20:12:00,1.5,-2.0,30.39,WNW,292,5.0,5.0,85,0.00,,,0.01,0,Wunderground v.1.15,2013-01-21 02:12:00,
2013-01-20 20:13:00,1.6,-1.9,30.39,WNW,291,5.0,5.0,85,0.00,,,0.01,0,Wunderground v.1.15,2013-01-21 02:13:00,
2013-01-20 20:15:00,1.7,-1.5,30.39,WNW,287,5.0,6.0,86,0.00,,,0.01,0,Wunderground v.1.15,2013-01-21 02:15:00,
2013-01-20 20:20:00,2.3,-0.7,30.39,WNW,282,7.0,7.0,87,0.00,,,0.01,0,Wunderground v.1.15,2013-01-21 02:20:00,
2013-01-20 20:21:00,2.4,-0.6,30.39,WNW,283,7.0,7.0,87,0.00,,,0.01,0,Wunderground v.1.15,2013-01-21 02:21:00,
2013-01-20 20:22:00,2.5,-0.5,30.39,WNW,283,7.0,7.0,87,0.00,,,0.01,0,Wunderground v.1.15,2013-01-21 02:22:00,
2013-01-20 20:27:00,3.6,0.8,30.39,West,281,10.0,10.0,88,0.00,,,0.01,0,Wunderground v.1.15,2013-01-21 02:27:00,
2013-01-20 20:28:00,3.8,1.0,30.39,WNW,284,8.0,10.0,88,0.00,,,0.01,0,Wunderground v.1.15,2013-01-21 02:28:00,
2013-01-20 20:30:00,4.4,1.9,30.39,WNW,284,9.0,9.0,89,0.00,,,0.01,0,Wunderground v.1.15,2013-01-21 02:30:00,
2013-01-20 20:33:00,5.2,2.7,30.39,WNW,286,8.0,9.0,89,0.00,,,0.01,0,Wunderground v.1.15,2013-01-21 02:33:00,
2013-01-20 20:35:00,5.4,2.9,30.39,WNW,287,8.0,9.0,89,0.00,,,0.01,0,Wunderground v.1.15,2013-01-21 02:35:00,
2013-01-20 20:36:00,5.6,3.1,30.39,WNW,284,8.0,9.0,89,0.00,,,0.01,0,Wunderground v.1.15,2013-01-21 02:36:00,
2013-01-20 20:37:00,5.6,2.8,30.39,WNW,284,8.0,9.0,88,0.00,,,0.01,0,Wunderground v.1.15,2013-01-21 02:37:00,
2013-01-20 20:38:00,5.7,2.9,30.39,West,281,8.0,9.0,88,0.00,,,0.01,0,Wunderground v.1.15,2013-01-21 02:38:00,
2013-01-20 20:42:00,5.9,3.1,30.39,West,279,6.0,8.0,88,0.00,,,0.01,0,Wunderground v.1.15,2013-01-21 02:42:00,
2013-01-20 20:43:00,5.8,3.0,30.39,West,277,7.0,8.0,88,0.00,,,0.01,0,Wunderground v.1.15,2013-01-21 02:43:00,
2013-01-20 20:44:00,5.8,2.8,30.39,WNW,283,6.0,8.0,87,0.00,,,0.01,0,Wunderground v.1.15,2013-01-21 02:44:00,
2013-01-20 20:45:00,5.6,2.6,30.39,West,281,6.0,8.0,87,0.00,,,0.01,0,Wunderground v.1.15,2013-01-21 02:45:00,
2013-01-20 20:47:00,5.4,2.4,30.39,West,277,7.0,8.0,87,0.00,,,0.01,0,Wunderground v.1.15,2013-01-21 02:47:00,
2013-01-20 20:50:00,5.3,2.0,30.39,WNW,284,10.0,10.0,86,0.00,,,0.01,0,Wunderground v.1.15,2013-01-21 02:50:00,
2013-01-20 20:53:00,5.6,2.6,30.39,WNW,292,10.0,11.0,87,0.00,,,0.01,0,Wunderground v.1.15,2013-01-21 02:53:00,
2013-01-20 20:56:00,5.9,2.9,30.39,WNW,289,8.0,11.0,87,0.00,,,0.01,0,Wunderground v.1.15,2013-01-21 02:56:00,
2013-01-20 20:57:00,6.0,3.0,30.39,WNW,293,8.0,11.0,87,0.00,,,0.01,0,Wunderground v.1.15,2013-01-21 02:57:00,
2013-01-20 21:01:00,5.9,2.6,30.39,WNW,290,6.0,9.0,86,0.00,,,0.01,0,Wunderground v.1.15,2013-01-21 03:01:00,
2013-01-20 21:02:00,5.9,2.6,30.39,WNW,292,6.0,9.0,86,0.00,,,0.01,0,Wunderground v.1.15,2013-01-21 03:02:00,
2013-01-20 21:03:00,5.8,2.5,30.39,WNW,288,6.0,9.0,86,0.00,,,0.01,0,Wunderground v.1.15,2013-01-21 03:03:00,
2013-01-20 21:04:00,5.6,2.1,30.39,WNW,288,7.0,9.0,85,0.00,,,0.01,0,Wunderground v.1.15,2013-01-21 03:04:00,
2013-01-20 21:07:00,5.4,1.9,30.39,WNW,288,6.0,9.0,85,0.00,,,0.01,0,Wunderground v.1.15,2013-01-21 03:07:00,
2013-01-20 21:08:00,5.3,1.5,30.39,WNW,289,6.0,9.0,84,0.00,,,0.01,0,Wunderground v.1.15,2013-01-21 03:08:00,
2013-01-20 21:10:00,5.1,1.3,30.39,WNW,288,7.0,7.0,84,0.00,,,0.01,0,Wunderground v.1.15,2013-01-21 03:10:00,
2013-01-20 21:13:00,4.8,1.0,30.39,WNW,284,7.0,7.0,84,0.00,,,0.01,0,Wunderground v.1.15,2013-01-21 03:13:00,
2013-01-20 21:15:00,4.7,0.9,30.39,WNW,284,5.0,7.0,84,0.00,,,0.01,0,Wunderground v.1.15,2013-01-21 03:15:00,
2013-01-20 21:18:00,4.4,0.6,30.39,West,280,5.0,7.0,84,0.00,,,0.01,0,Wunderground v.1.15,2013-01-21 03:18:00,
2013-01-20 21:21:00,4.3,0.5,30.39,West,281,6.0,6.0,84,0.00,,,0.01,0,Wunderground v.1.15,2013-01-21 03:21:00,
2013-01-20 21:23:00,4.2,0.4,30.39,West,281,6.0,7.0,84,0.00,,,0.01,0,Wunderground v.1.15,2013-01-21 03:23:00,
2013-01-20 21:24:00,4.1,0.3,30.39,WNW,284,6.0,7.0,84,0.00,,,0.01,0,Wunderground v.1.15,2013-01-21 03:24:00,
2013-01-20 21:25:00,4.2,0.4,30.39,WNW,283,5.0,8.0,84,0.00,,,0.01,0,Wunderground v.1.15,2013-01-21 03:25:00,
2013-01-20 21:28:00,4.3,0.8,30.39,WNW,284,8.0,9.0,85,0.00,,,0.01,0,Wunderground v.1.15,2013-01-21 03:28:00,
2013-01-20 21:30:00,4.5,1.0,30.39,WNW,284,6.0,9.0,85,0.00,,,0.01,0,Wunderground v.1.15,2013-01-21 03:30:00,
2013-01-20 21:33:00,5.1,1.8,30.39,WNW,293,7.0,9.0,86,0.00,,,0.01,0,Wunderground v.1.15,2013-01-21 03:33:00,
2013-01-20 21:34:00,5.2,1.9,30.39,WNW,293,5.0,9.0,86,0.00,,,0.01,0,Wunderground v.1.15,2013-01-21 03:34:00,
2013-01-20 21:35:00,5.3,2.0,30.39,WNW,291,8.0,9.0,86,0.00,,,0.01,0,Wunderground v.1.15,2013-01-21 03:35:00,
2013-01-20 21:39:00,5.5,2.2,30.39,WNW,297,5.0,9.0,86,0.00,,,0.01,0,Wunderground v.1.15,2013-01-21 03:39:00,
2013-01-20 21:41:00,5.5,2.2,30.39,WNW,300,4.0,6.0,86,0.00,,,0.01,0,Wunderground v.1.15,2013-01-21 03:41:00,
2013-01-20 21:42:00,5.5,2.2,30.39,WNW,299,5.0,6.0,86,0.00,,,0.01,0,Wunderground v.1.15,2013-01-21 03:42:00,
2013-01-20 21:43:00,5.4,1.9,30.39,WNW,298,5.0,6.0,85,0.00,,,0.01,0,Wunderground v.1.15,2013-01-21 03:43:00,
2013-01-20 21:47:00,5.2,1.7,30.39,WNW,290,4.0,7.0,85,0.00,,,0.01,0,Wunderground v.1.15,2013-01-21 03:47:00,
2013-01-20 21:48:00,5.1,1.6,30.39,WNW,290,4.0,7.0,85,0.00,,,0.01,0,Wunderground v.1.15,2013-01-21 03:48:00,
2013-01-20 21:53:00,4.8,1.0,30.39,WNW,285,5.0,6.0,84,0.00,,,0.01,0,Wunderground v.1.15,2013-01-21 03:53:00,
2013-01-20 21:54:00,4.7,0.9,30.39,WNW,289,4.0,6.0,84,0.00,,,0.01,0,Wunderground v.1.15,2013-01-21 03:54:00,
2013-01-20 21:58:00,4.5,0.7,30.39,WNW,299,3.0,6.0,84,0.00,,,0.01,0,Wunderground v.1.15,2013-01-21 03:58:00,
2013-01-20 22:00:00,4.4,0.6,30.39,WNW,300,3.0,5.0,84,0.00,,,0.01,0,Wunderground v.1.15,2013-01-21 04:00:00,
2013-01-20 22:01:00,4.3,0.5,30.39,NW,304,4.0,5.0,84,0.00,,,0.01,0,Wunderground v.1.15,2013-01-21 04:01:00,
2013-01-20 22:05:00,4.0,0.0,30.39,NW,311,4.0,5.0,83,0.00,,,0.01,0,Wunderground v.1.15,2013-01-21 04:05:00,
2013-01-20 22:07:00,3.9,-0.1,30.39,NW,312,3.0,5.0,83,0.00,,,0.01,0,Wunderground v.1.15,2013-01-21 04:07:00,
2013-01-20 22:09:00,3.8,-0.2,30.39,NW,312,4.0,5.0,83,0.00,,,0.01,0,Wunderground v.1.15,2013-01-21 04:09:00,
2013-01-20 22:11:00,3.6,-0.4,30.39,WNW,300,5.0,5.0,83,0.00,,,0.01,0,Wunderground v.1.15,2013-01-21 04:11:00,
2013-01-20 22:12:00,3.6,-0.4,30.39,WNW,300,5.0,5.0,83,0.00,,,0.01,0,Wunderground v.1.15,2013-01-21 04:12:00,
2013-01-20 22:13:00,3.5,-0.5,30.39,WNW,296,6.0,6.0,83,0.00,,,0.01,0,Wunderground v.1.15,2013-01-21 04:13:00,
2013-01-20 22:15:00,3.6,-0.2,30.39,NW,308,7.0,7.0,84,0.00,,,0.01,0,Wunderground v.1.15,2013-01-21 04:15:00,
2013-01-20 22:16:00,3.6,-0.2,30.39,NW,304,6.0,7.0,84,0.00,,,0.01,0,Wunderground v.1.15,2013-01-21 04:16:00,
2013-01-20 22:17:00,3.6,-0.2,30.39,WNW,302,8.0,8.0,84,0.00,,,0.01,0,Wunderground v.1.15,2013-01-21 04:17:00,
2013-01-20 22:18:00,3.8,0.3,30.39,WNW,301,8.0,8.0,85,0.00,,,0.01,0,Wunderground v.1.15,2013-01-21 04:18:00,
2013-01-20 22:22:00,4.7,1.4,30.39,WNW,296,8.0,9.0,86,0.00,,,0.01,0,Wunderground v.1.15,2013-01-21 04:22:00,
2013-01-20 22:23:00,4.8,1.5,30.39,WNW,296,7.0,9.0,86,0.00,,,0.01,0,Wunderground v.1.15,2013-01-21 04:23:00,
2013-01-20 22:24:00,4.9,1.6,30.38,WNW,295,9.0,9.0,86,0.00,,,0.01,0,Wunderground v.1.15,2013-01-21 04:24:00,
2013-01-20 22:27:00,5.2,1.9,30.38,WNW,294,8.0,9.0,86,0.00,,,0.01,0,Wunderground v.1.15,2013-01-21 04:27:00,
2013-01-20 22:29:00,5.2,1.7,30.38,NW,304,8.0,9.0,85,0.00,,,0.01,0,Wunderground v.1.15,2013-01-21 04:29:00,
2013-01-20 22:30:00,5.2,1.7,30.38,WNW,302,8.0,8.0,85,0.00,,,0.01,0,Wunderground v.1.15,2013-01-21 04:30:00,
2013-01-20 22:32:00,5.3,1.8,30.38,NW,304,8.0,9.0,85,0.00,,,0.01,0,Wunderground v.1.15,2013-01-21 04:32:00,
2013-01-20 22:34:00,5.5,2.0,30.38,WNW,300,8.0,10.0,85,0.00,,,0.01,0,Wunderground v.1.15,2013-01-21 04:34:00,
2013-01-20 22:35:00,5.5,2.0,30.38,WNW,300,9.0,10.0,85,0.00,,,0.01,0,Wunderground v.1.15,2013-01-21 04:35:00,
2013-01-20 22:38:00,5.6,2.1,30.38,NW,306,8.0,10.0,85,0.00,,,0.01,0,Wunderground v.1.15,2013-01-21 04:38:00,
2013-01-20 22:39:00,5.6,2.1,30.39,WNW,303,9.0,10.0,85,0.00,,,0.01,0,Wunderground v.1.15,2013-01-21 04:39:00,
2013-01-20 22:40:00,5.6,2.1,30.39,NW,307,8.0,9.0,85,0.00,,,0.01,0,Wunderground v.1.15,2013-01-21 04:40:00,
2013-01-20 22:43:00,5.6,2.1,30.38,WNW,302,8.0,9.0,85,0.00,,,0.01,0,Wunderground v.1.15,2013-01-21 04:43:00,
2013-01-20 22:45:00,5.8,2.3,30.38,WNW,298,8.0,9.0,85,0.00,,,0.01,0,Wunderground v.1.15,2013-01-21 04:45:00,
2013-01-20 22:48:00,5.8,2.3,30.39,WNW,294,8.0,10.0,85,0.00,,,0.01,0,Wunderground v.1.15,2013-01-21 04:48:00,
2013-01-20 22:53:00,5.7,1.9,30.39,WNW,296,8.0,8.0,84,0.00,,,0.01,0,Wunderground v.1.15,2013-01-21 04:53:00,
2013-01-20 22:54:00,5.6,1.8,30.39,WNW,287,6.0,8.0,84,0.00,,,0.01,0,Wunderground v.1.15,2013-01-21 04:54:00,
2013-01-20 22:58:00,5.4,1.4,30.39,West,278,7.0,9.0,83,0.00,,,0.01,0,Wunderground v.1.15,2013-01-21 04:58:00,
2013-01-20 22:59:00,5.4,1.6,30.39,West,278,7.0,9.0,84,0.00,,,0.01,0,Wunderground v.1.15,2013-01-21 04:59:00,
2013-01-20 23:00:00,5.4,1.4,30.39,West,279,6.0,7.0,83,0.00,,,0.01,0,Wunderground v.1.15,2013-01-21 05:00:00,
2013-01-20 23:03:00,5.3,1.3,30.39,WNW,290,8.0,9.0,83,0.00,,,0.01,0,Wunderground v.1.15,2013-01-21 05:03:00,
2013-01-20 23:04:00,5.3,1.5,30.39,WNW,294,8.0,9.0,84,0.00,,,0.01,0,Wunderground v.1.15,2013-01-21 05:04:00,
2013-01-20 23:05:00,5.3,1.5,30.39,WNW,293,8.0,9.0,84,0.00,,,0.01,0,Wunderground v.1.15,2013-01-21 05:05:00,
2013-01-20 23:07:00,5.2,1.4,30.39,WNW,294,7.0,9.0,84,0.00,,,0.01,0,Wunderground v.1.15,2013-01-21 05:07:00,
2013-01-20 23:08:00,5.1,1.1,30.39,WNW,292,7.0,9.0,83,0.00,,,0.01,0,Wunderground v.1.15,2013-01-21 05:08:00,
2013-01-20 23:10:00,4.9,0.9,30.39,WNW,290,7.0,9.0,83,0.00,,,0.01,0,Wunderground v.1.15,2013-01-21 05:10:00,
2013-01-20 23:11:00,4.8,0.8,30.39,WNW,288,8.0,9.0,83,0.00,,,0.01,0,Wunderground v.1.15,2013-01-21 05:11:00,
2013-01-20 23:12:00,4.7,0.7,30.39,WNW,288,9.0,9.0,83,0.00,,,0.01,0,Wunderground v.1.15,2013-01-21 05:12:00,
2013-01-20 23:14:00,4.5,0.5,30.39,WNW,289,9.0,9.0,83,0.00,,,0.01,0,Wunderground v.1.15,2013-01-21 05:14:00,
2013-01-20 23:16:00,4.4,0.4,30.39,WNW,287,7.0,9.0,83,0.00,,,0.01,0,Wunderground v.1.15,2013-01-21 05:16:00,
2013-01-20 23:18:00,4.3,0.3,30.39,WNW,290,7.0,9.0,83,0.00,,,0.01,0,Wunderground v.1.15,2013-01-21 05:18:00,
2013-01-20 23:20:00,4.2,0.2,30.39,WNW,294,7.0,8.0,83,0.00,,,0.01,0,Wunderground v.1.15,2013-01-21 05:20:00,
2013-01-20 23:22:00,4.1,0.1,30.39,WNW,299,6.0,8.0,83,0.00,,,0.01,0,Wunderground v.1.15,2013-01-21 05:22:00,
2013-01-20 23:23:00,4.0,0.0,30.39,WNW,300,5.0,8.0,83,0.00,,,0.01,0,Wunderground v.1.15,2013-01-21 05:23:00,
2013-01-20 23:26:00,3.8,-0.5,30.39,NW,309,5.0,8.0,82,0.00,,,0.01,0,Wunderground v.1.15,2013-01-21 05:26:00,
2013-01-20 23:28:00,3.5,-0.8,30.39,NW,310,5.0,8.0,82,0.00,,,0.01,0,Wunderground v.1.15,2013-01-21 05:28:00,
2013-01-20 23:29:00,3.3,-1.0,30.39,NW,307,6.0,8.0,82,0.00,,,0.01,0,Wunderground v.1.15,2013-01-21 05:29:00,
2013-01-20 23:31:00,3.1,-1.2,30.39,NW,306,6.0,6.0,82,0.00,,,0.01,0,Wunderground v.1.15,2013-01-21 05:31:00,
2013-01-20 23:33:00,2.9,-1.3,30.39,NW,309,7.0,7.0,82,0.00,,,0.01,0,Wunderground v.1.15,2013-01-21 05:33:00,
2013-01-20 23:34:00,2.8,-1.4,30.39,NW,306,7.0,7.0,82,0.00,,,0.01,0,Wunderground v.1.15,2013-01-21 05:34:00,
2013-01-20 23:37:00,2.9,-1.1,30.39,NW,306,9.0,9.0,83,0.00,,,0.01,0,Wunderground v.1.15,2013-01-21 05:37:00,
2013-01-20 23:38:00,3.0,-1.0,30.39,WNW,297,8.0,9.0,83,0.00,,,0.01,0,Wunderground v.1.15,2013-01-21 05:38:00,
2013-01-20 23:39:00,3.2,-0.5,30.39,WNW,299,9.0,10.0,84,0.00,,,0.01,0,Wunderground v.1.15,2013-01-21 05:39:00,
2013-01-20 23:40:00,3.3,-0.4,30.39,WNW,300,10.0,10.0,84,0.00,,,0.01,0,Wunderground v.1.15,2013-01-21 05:40:00,
2013-01-20 23:44:00,3.9,0.4,30.39,NW,304,9.0,10.0,85,0.00,,,0.01,0,Wunderground v.1.15,2013-01-21 05:44:00,
2013-01-20 23:45:00,4.0,0.5,30.39,WNW,298,10.0,11.0,85,0.00,,,0.01,0,Wunderground v.1.15,2013-01-21 05:45:00,
2013-01-20 23:46:00,4.1,0.6,30.39,NW,307,11.0,11.0,85,0.00,,,0.01,0,Wunderground v.1.15,2013-01-21 05:46:00,
2013-01-20 23:47:00,4.3,0.5,30.39,WNW,302,10.0,11.0,84,0.00,,,0.01,0,Wunderground v.1.15,2013-01-21 05:47:00,
2013-01-20 23:49:00,4.4,0.6,30.39,WNW,301,10.0,11.0,84,0.00,,,0.01,0,Wunderground v.1.15,2013-01-21 05:49:00,
2013-01-20 23:51:00,4.4,0.6,30.39,NW,306,8.0,10.0,84,0.00,,,0.01,0,Wunderground v.1.15,2013-01-21 05:51:00,
2013-01-20 23:52:00,4.3,0.5,30.39,WNW,302,7.0,10.0,84,0.00,,,0.01,0,Wunderground v.1.15,2013-01-21 05:52:00,
2013-01-20 23:53:00,4.3,0.5,30.39,NW,305,7.0,10.0,84,0.00,,,0.01,0,Wunderground v.1.15,2013-01-21 05:53:00,
2013-01-20 23:57:00,4.1,0.1,30.39,NW,308,8.0,10.0,83,0.00,,,0.01,0,Wunderground v.1.15,2013-01-21 05:57:00,
2013-01-20 23:58:00,4.1,0.1,30.39,NW,306,10.0,10.0,83,0.00,,,0.01,0,Wunderground v.1.15,2013-01-21 05:58:00,
2013-01-20 23:59:00,4.0,0.0,30.39,NW,307,8.0,10.0,83,0.00,,,0.00,0,Wunderground v.1.15,2013-01-21 05:59:00,